<?xml version="1.0" encoding="UTF-8" standalone="no" ?>
<gpx xmlns="http://www.topografix.com/GPX/1/1" xmlns:xsi="http://www.w3.org/2001/XMLSchema-instance" xsi:schemaLocation="http://www.topografix.com/GPX/1/1 http://www.topografix.com/GPX/1/1/gpx.xsd" version="1.1" creator="VisuGPX - https://www.visugpx.com">
  <metadata>
    <name>Bickensohl</name>
    <desc><![CDATA[Promenade dans les vignes des contre forts de la forêt noire.
Le lösshohlwege-Pfad ou itinéraire des chemins creux du loess .Le loess étant le limon du Rhin qui s\'est déposé de manière spectaculaire sur plusieurs dizaines de mètres au cours des derniers millénaires.]]></desc>
  </metadata>
  <trk>
    <name><![CDATA[07-JUIN-14 15:38:45]]></name>
    <trkseg>
      <trkpt lat="48.07872" lon="7.64551">
        <ele>242.39</ele>
        <time>2014-06-07T08:48:29Z</time>
      </trkpt>
      <trkpt lat="48.07872" lon="7.64555">
        <ele>243.83</ele>
        <time>2014-06-07T08:48:44Z</time>
      </trkpt>
      <trkpt lat="48.07871" lon="7.64554">
        <ele>239.99</ele>
        <time>2014-06-07T08:48:45Z</time>
      </trkpt>
      <trkpt lat="48.0787" lon="7.64554">
        <ele>251.04</ele>
        <time>2014-06-07T08:48:48Z</time>
      </trkpt>
      <trkpt lat="48.0787" lon="7.64553">
        <ele>242.87</ele>
        <time>2014-06-07T08:48:49Z</time>
      </trkpt>
      <trkpt lat="48.07868" lon="7.64553">
        <ele>242.39</ele>
        <time>2014-06-07T08:49:17Z</time>
      </trkpt>
      <trkpt lat="48.07871" lon="7.64554">
        <ele>243.83</ele>
        <time>2014-06-07T08:49:28Z</time>
      </trkpt>
      <trkpt lat="48.07869" lon="7.64554">
        <ele>243.35</ele>
        <time>2014-06-07T08:49:52Z</time>
      </trkpt>
      <trkpt lat="48.07864" lon="7.64573">
        <ele>244.31</ele>
        <time>2014-06-07T08:50:08Z</time>
      </trkpt>
      <trkpt lat="48.0786" lon="7.6458">
        <ele>244.79</ele>
        <time>2014-06-07T08:50:25Z</time>
      </trkpt>
      <trkpt lat="48.07855" lon="7.64588">
        <ele>244.31</ele>
        <time>2014-06-07T08:50:33Z</time>
      </trkpt>
      <trkpt lat="48.07848" lon="7.64605">
        <ele>245.27</ele>
        <time>2014-06-07T08:50:45Z</time>
      </trkpt>
      <trkpt lat="48.07828" lon="7.64618">
        <ele>245.75</ele>
        <time>2014-06-07T08:51:04Z</time>
      </trkpt>
      <trkpt lat="48.0781" lon="7.64637">
        <ele>246.72</ele>
        <time>2014-06-07T08:51:23Z</time>
      </trkpt>
      <trkpt lat="48.07791" lon="7.64648">
        <ele>246.72</ele>
        <time>2014-06-07T08:51:41Z</time>
      </trkpt>
      <trkpt lat="48.0778" lon="7.64674">
        <ele>248.16</ele>
        <time>2014-06-07T08:51:57Z</time>
      </trkpt>
      <trkpt lat="48.0777" lon="7.64692">
        <ele>248.16</ele>
        <time>2014-06-07T08:52:11Z</time>
      </trkpt>
      <trkpt lat="48.07766" lon="7.64724">
        <ele>249.12</ele>
        <time>2014-06-07T08:52:25Z</time>
      </trkpt>
      <trkpt lat="48.07771" lon="7.64744">
        <ele>250.08</ele>
        <time>2014-06-07T08:52:39Z</time>
      </trkpt>
      <trkpt lat="48.07775" lon="7.64758">
        <ele>251.04</ele>
        <time>2014-06-07T08:52:50Z</time>
      </trkpt>
      <trkpt lat="48.07777" lon="7.64766">
        <ele>251.52</ele>
        <time>2014-06-07T08:52:54Z</time>
      </trkpt>
      <trkpt lat="48.0778" lon="7.64785">
        <ele>252.96</ele>
        <time>2014-06-07T08:53:07Z</time>
      </trkpt>
      <trkpt lat="48.07774" lon="7.64804">
        <ele>254.89</ele>
        <time>2014-06-07T08:53:19Z</time>
      </trkpt>
      <trkpt lat="48.07772" lon="7.64823">
        <ele>256.81</ele>
        <time>2014-06-07T08:53:32Z</time>
      </trkpt>
      <trkpt lat="48.07772" lon="7.64832">
        <ele>257.77</ele>
        <time>2014-06-07T08:53:38Z</time>
      </trkpt>
      <trkpt lat="48.07765" lon="7.64854">
        <ele>258.73</ele>
        <time>2014-06-07T08:53:55Z</time>
      </trkpt>
      <trkpt lat="48.07762" lon="7.64871">
        <ele>259.69</ele>
        <time>2014-06-07T08:54:04Z</time>
      </trkpt>
      <trkpt lat="48.07756" lon="7.64895">
        <ele>260.17</ele>
        <time>2014-06-07T08:54:21Z</time>
      </trkpt>
      <trkpt lat="48.0775" lon="7.64923">
        <ele>261.62</ele>
        <time>2014-06-07T08:54:38Z</time>
      </trkpt>
      <trkpt lat="48.07746" lon="7.64942">
        <ele>263.06</ele>
        <time>2014-06-07T08:54:55Z</time>
      </trkpt>
      <trkpt lat="48.07743" lon="7.64968">
        <ele>264.98</ele>
        <time>2014-06-07T08:55:14Z</time>
      </trkpt>
      <trkpt lat="48.07737" lon="7.64995">
        <ele>265.46</ele>
        <time>2014-06-07T08:55:29Z</time>
      </trkpt>
      <trkpt lat="48.07732" lon="7.65023">
        <ele>267.38</ele>
        <time>2014-06-07T08:55:46Z</time>
      </trkpt>
      <trkpt lat="48.07732" lon="7.65049">
        <ele>269.31</ele>
        <time>2014-06-07T08:56:03Z</time>
      </trkpt>
      <trkpt lat="48.07732" lon="7.65061">
        <ele>270.27</ele>
        <time>2014-06-07T08:56:10Z</time>
      </trkpt>
      <trkpt lat="48.07733" lon="7.65072">
        <ele>270.27</ele>
        <time>2014-06-07T08:56:17Z</time>
      </trkpt>
      <trkpt lat="48.07735" lon="7.65087">
        <ele>271.23</ele>
        <time>2014-06-07T08:56:26Z</time>
      </trkpt>
      <trkpt lat="48.07742" lon="7.65103">
        <ele>272.67</ele>
        <time>2014-06-07T08:56:39Z</time>
      </trkpt>
      <trkpt lat="48.0775" lon="7.65102">
        <ele>273.63</ele>
        <time>2014-06-07T08:56:54Z</time>
      </trkpt>
      <trkpt lat="48.07753" lon="7.65093">
        <ele>275.07</ele>
        <time>2014-06-07T08:57:10Z</time>
      </trkpt>
      <trkpt lat="48.07756" lon="7.65084">
        <ele>275.56</ele>
        <time>2014-06-07T08:57:25Z</time>
      </trkpt>
      <trkpt lat="48.07761" lon="7.65064">
        <ele>277.48</ele>
        <time>2014-06-07T08:57:44Z</time>
      </trkpt>
      <trkpt lat="48.0777" lon="7.65046">
        <ele>280.36</ele>
        <time>2014-06-07T08:58:00Z</time>
      </trkpt>
      <trkpt lat="48.07768" lon="7.65037">
        <ele>281.8</ele>
        <time>2014-06-07T08:58:17Z</time>
      </trkpt>
      <trkpt lat="48.0777" lon="7.6503">
        <ele>281.8</ele>
        <time>2014-06-07T08:58:27Z</time>
      </trkpt>
      <trkpt lat="48.07772" lon="7.65038">
        <ele>282.77</ele>
        <time>2014-06-07T08:58:43Z</time>
      </trkpt>
      <trkpt lat="48.07769" lon="7.65036">
        <ele>283.73</ele>
        <time>2014-06-07T08:59:04Z</time>
      </trkpt>
      <trkpt lat="48.07775" lon="7.6505">
        <ele>284.69</ele>
        <time>2014-06-07T08:59:24Z</time>
      </trkpt>
      <trkpt lat="48.07778" lon="7.65071">
        <ele>287.09</ele>
        <time>2014-06-07T08:59:41Z</time>
      </trkpt>
      <trkpt lat="48.07779" lon="7.65085">
        <ele>290.46</ele>
        <time>2014-06-07T08:59:55Z</time>
      </trkpt>
      <trkpt lat="48.07789" lon="7.65093">
        <ele>292.38</ele>
        <time>2014-06-07T09:00:09Z</time>
      </trkpt>
      <trkpt lat="48.07795" lon="7.651">
        <ele>293.34</ele>
        <time>2014-06-07T09:00:23Z</time>
      </trkpt>
      <trkpt lat="48.07793" lon="7.65099">
        <ele>294.3</ele>
        <time>2014-06-07T09:00:45Z</time>
      </trkpt>
      <trkpt lat="48.07793" lon="7.65099">
        <ele>294.3</ele>
        <time>2014-06-07T09:01:07Z</time>
      </trkpt>
      <trkpt lat="48.07796" lon="7.65098">
        <ele>294.3</ele>
        <time>2014-06-07T09:01:28Z</time>
      </trkpt>
      <trkpt lat="48.07811" lon="7.65102">
        <ele>295.26</ele>
        <time>2014-06-07T09:01:43Z</time>
      </trkpt>
      <trkpt lat="48.07828" lon="7.65103">
        <ele>296.7</ele>
        <time>2014-06-07T09:01:59Z</time>
      </trkpt>
      <trkpt lat="48.07838" lon="7.65093">
        <ele>300.07</ele>
        <time>2014-06-07T09:02:11Z</time>
      </trkpt>
      <trkpt lat="48.07851" lon="7.65079">
        <ele>301.99</ele>
        <time>2014-06-07T09:02:26Z</time>
      </trkpt>
      <trkpt lat="48.07852" lon="7.65076">
        <ele>302.95</ele>
        <time>2014-06-07T09:02:29Z</time>
      </trkpt>
      <trkpt lat="48.07854" lon="7.65063">
        <ele>303.91</ele>
        <time>2014-06-07T09:02:39Z</time>
      </trkpt>
      <trkpt lat="48.07865" lon="7.65044">
        <ele>306.8</ele>
        <time>2014-06-07T09:02:55Z</time>
      </trkpt>
      <trkpt lat="48.07874" lon="7.65025">
        <ele>308.24</ele>
        <time>2014-06-07T09:03:10Z</time>
      </trkpt>
      <trkpt lat="48.07881" lon="7.65021">
        <ele>309.2</ele>
        <time>2014-06-07T09:03:24Z</time>
      </trkpt>
      <trkpt lat="48.07891" lon="7.65022">
        <ele>311.12</ele>
        <time>2014-06-07T09:03:44Z</time>
      </trkpt>
      <trkpt lat="48.079" lon="7.65027">
        <ele>314.49</ele>
        <time>2014-06-07T09:04:00Z</time>
      </trkpt>
      <trkpt lat="48.07906" lon="7.65033">
        <ele>315.93</ele>
        <time>2014-06-07T09:04:15Z</time>
      </trkpt>
      <trkpt lat="48.07916" lon="7.65039">
        <ele>318.33</ele>
        <time>2014-06-07T09:04:31Z</time>
      </trkpt>
      <trkpt lat="48.07923" lon="7.65042">
        <ele>319.3</ele>
        <time>2014-06-07T09:04:39Z</time>
      </trkpt>
      <trkpt lat="48.07936" lon="7.65045">
        <ele>321.22</ele>
        <time>2014-06-07T09:04:55Z</time>
      </trkpt>
      <trkpt lat="48.07952" lon="7.65047">
        <ele>323.62</ele>
        <time>2014-06-07T09:05:15Z</time>
      </trkpt>
      <trkpt lat="48.0796" lon="7.65051">
        <ele>326.02</ele>
        <time>2014-06-07T09:05:29Z</time>
      </trkpt>
      <trkpt lat="48.07962" lon="7.65051">
        <ele>326.02</ele>
        <time>2014-06-07T09:05:44Z</time>
      </trkpt>
      <trkpt lat="48.07968" lon="7.65051">
        <ele>327.95</ele>
        <time>2014-06-07T09:06:02Z</time>
      </trkpt>
      <trkpt lat="48.0798" lon="7.65052">
        <ele>329.87</ele>
        <time>2014-06-07T09:06:21Z</time>
      </trkpt>
      <trkpt lat="48.07984" lon="7.6505">
        <ele>331.79</ele>
        <time>2014-06-07T09:06:32Z</time>
      </trkpt>
      <trkpt lat="48.07998" lon="7.65053">
        <ele>334.2</ele>
        <time>2014-06-07T09:06:49Z</time>
      </trkpt>
      <trkpt lat="48.08003" lon="7.65065">
        <ele>334.68</ele>
        <time>2014-06-07T09:07:06Z</time>
      </trkpt>
      <trkpt lat="48.08007" lon="7.6508">
        <ele>334.68</ele>
        <time>2014-06-07T09:07:19Z</time>
      </trkpt>
      <trkpt lat="48.08012" lon="7.6508">
        <ele>334.68</ele>
        <time>2014-06-07T09:07:32Z</time>
      </trkpt>
      <trkpt lat="48.08009" lon="7.65076">
        <ele>335.16</ele>
        <time>2014-06-07T09:07:48Z</time>
      </trkpt>
      <trkpt lat="48.08009" lon="7.6507">
        <ele>335.64</ele>
        <time>2014-06-07T09:07:54Z</time>
      </trkpt>
      <trkpt lat="48.08008" lon="7.65049">
        <ele>337.08</ele>
        <time>2014-06-07T09:08:10Z</time>
      </trkpt>
      <trkpt lat="48.08005" lon="7.65031">
        <ele>338.04</ele>
        <time>2014-06-07T09:08:22Z</time>
      </trkpt>
      <trkpt lat="48.08004" lon="7.65003">
        <ele>338.52</ele>
        <time>2014-06-07T09:08:40Z</time>
      </trkpt>
      <trkpt lat="48.08006" lon="7.64999">
        <ele>338.04</ele>
        <time>2014-06-07T09:08:44Z</time>
      </trkpt>
      <trkpt lat="48.08019" lon="7.64972">
        <ele>337.56</ele>
        <time>2014-06-07T09:09:04Z</time>
      </trkpt>
      <trkpt lat="48.08029" lon="7.64953">
        <ele>338.04</ele>
        <time>2014-06-07T09:09:20Z</time>
      </trkpt>
      <trkpt lat="48.08018" lon="7.64942">
        <ele>338.52</ele>
        <time>2014-06-07T09:09:35Z</time>
      </trkpt>
      <trkpt lat="48.08014" lon="7.64935">
        <ele>338.04</ele>
        <time>2014-06-07T09:09:51Z</time>
      </trkpt>
      <trkpt lat="48.08012" lon="7.64937">
        <ele>339.96</ele>
        <time>2014-06-07T09:10:20Z</time>
      </trkpt>
      <trkpt lat="48.08011" lon="7.64938">
        <ele>339.96</ele>
        <time>2014-06-07T09:10:38Z</time>
      </trkpt>
      <trkpt lat="48.08011" lon="7.64937">
        <ele>339.96</ele>
        <time>2014-06-07T09:11:06Z</time>
      </trkpt>
      <trkpt lat="48.08015" lon="7.64937">
        <ele>339</ele>
        <time>2014-06-07T09:11:23Z</time>
      </trkpt>
      <trkpt lat="48.08019" lon="7.64941">
        <ele>339.48</ele>
        <time>2014-06-07T09:11:36Z</time>
      </trkpt>
      <trkpt lat="48.08026" lon="7.64949">
        <ele>339.96</ele>
        <time>2014-06-07T09:11:44Z</time>
      </trkpt>
      <trkpt lat="48.08029" lon="7.64951">
        <ele>339.48</ele>
        <time>2014-06-07T09:11:47Z</time>
      </trkpt>
      <trkpt lat="48.08035" lon="7.64945">
        <ele>339.48</ele>
        <time>2014-06-07T09:11:52Z</time>
      </trkpt>
      <trkpt lat="48.08057" lon="7.64921">
        <ele>339</ele>
        <time>2014-06-07T09:12:13Z</time>
      </trkpt>
      <trkpt lat="48.08086" lon="7.64906">
        <ele>338.52</ele>
        <time>2014-06-07T09:12:35Z</time>
      </trkpt>
      <trkpt lat="48.08109" lon="7.64908">
        <ele>338.52</ele>
        <time>2014-06-07T09:12:53Z</time>
      </trkpt>
      <trkpt lat="48.08129" lon="7.64917">
        <ele>338.52</ele>
        <time>2014-06-07T09:13:13Z</time>
      </trkpt>
      <trkpt lat="48.08138" lon="7.64929">
        <ele>338.52</ele>
        <time>2014-06-07T09:13:29Z</time>
      </trkpt>
      <trkpt lat="48.08141" lon="7.64939">
        <ele>338.52</ele>
        <time>2014-06-07T09:13:47Z</time>
      </trkpt>
      <trkpt lat="48.08149" lon="7.64957">
        <ele>340.92</ele>
        <time>2014-06-07T09:14:03Z</time>
      </trkpt>
      <trkpt lat="48.08161" lon="7.64976">
        <ele>342.85</ele>
        <time>2014-06-07T09:14:20Z</time>
      </trkpt>
      <trkpt lat="48.08161" lon="7.64977">
        <ele>342.85</ele>
        <time>2014-06-07T09:14:21Z</time>
      </trkpt>
      <trkpt lat="48.08177" lon="7.64991">
        <ele>344.29</ele>
        <time>2014-06-07T09:14:38Z</time>
      </trkpt>
      <trkpt lat="48.08192" lon="7.64996">
        <ele>345.73</ele>
        <time>2014-06-07T09:14:52Z</time>
      </trkpt>
      <trkpt lat="48.08208" lon="7.64995">
        <ele>347.17</ele>
        <time>2014-06-07T09:15:08Z</time>
      </trkpt>
      <trkpt lat="48.08218" lon="7.64991">
        <ele>347.65</ele>
        <time>2014-06-07T09:15:21Z</time>
      </trkpt>
      <trkpt lat="48.08231" lon="7.64986">
        <ele>348.62</ele>
        <time>2014-06-07T09:15:36Z</time>
      </trkpt>
      <trkpt lat="48.08245" lon="7.64978">
        <ele>349.58</ele>
        <time>2014-06-07T09:15:52Z</time>
      </trkpt>
      <trkpt lat="48.08258" lon="7.64968">
        <ele>350.54</ele>
        <time>2014-06-07T09:16:07Z</time>
      </trkpt>
      <trkpt lat="48.0826" lon="7.64966">
        <ele>351.02</ele>
        <time>2014-06-07T09:16:10Z</time>
      </trkpt>
      <trkpt lat="48.08275" lon="7.64957">
        <ele>351.98</ele>
        <time>2014-06-07T09:16:27Z</time>
      </trkpt>
      <trkpt lat="48.08292" lon="7.64956">
        <ele>353.42</ele>
        <time>2014-06-07T09:16:46Z</time>
      </trkpt>
      <trkpt lat="48.08309" lon="7.64944">
        <ele>354.38</ele>
        <time>2014-06-07T09:17:05Z</time>
      </trkpt>
      <trkpt lat="48.08317" lon="7.64954">
        <ele>355.34</ele>
        <time>2014-06-07T09:17:23Z</time>
      </trkpt>
      <trkpt lat="48.08312" lon="7.64981">
        <ele>357.75</ele>
        <time>2014-06-07T09:17:43Z</time>
      </trkpt>
      <trkpt lat="48.08313" lon="7.64993">
        <ele>361.11</ele>
        <time>2014-06-07T09:18:01Z</time>
      </trkpt>
      <trkpt lat="48.08314" lon="7.65004">
        <ele>364.48</ele>
        <time>2014-06-07T09:18:20Z</time>
      </trkpt>
      <trkpt lat="48.08313" lon="7.65018">
        <ele>367.36</ele>
        <time>2014-06-07T09:18:38Z</time>
      </trkpt>
      <trkpt lat="48.08309" lon="7.65029">
        <ele>370.73</ele>
        <time>2014-06-07T09:18:56Z</time>
      </trkpt>
      <trkpt lat="48.08306" lon="7.65038">
        <ele>373.61</ele>
        <time>2014-06-07T09:19:13Z</time>
      </trkpt>
      <trkpt lat="48.08306" lon="7.65053">
        <ele>376.97</ele>
        <time>2014-06-07T09:19:29Z</time>
      </trkpt>
      <trkpt lat="48.08302" lon="7.65065">
        <ele>379.38</ele>
        <time>2014-06-07T09:19:45Z</time>
      </trkpt>
      <trkpt lat="48.08303" lon="7.65082">
        <ele>381.78</ele>
        <time>2014-06-07T09:20:01Z</time>
      </trkpt>
      <trkpt lat="48.08301" lon="7.65095">
        <ele>383.7</ele>
        <time>2014-06-07T09:20:16Z</time>
      </trkpt>
      <trkpt lat="48.08294" lon="7.65101">
        <ele>387.07</ele>
        <time>2014-06-07T09:20:34Z</time>
      </trkpt>
      <trkpt lat="48.08286" lon="7.65112">
        <ele>389.47</ele>
        <time>2014-06-07T09:20:54Z</time>
      </trkpt>
      <trkpt lat="48.08281" lon="7.65123">
        <ele>392.36</ele>
        <time>2014-06-07T09:21:10Z</time>
      </trkpt>
      <trkpt lat="48.08279" lon="7.65126">
        <ele>394.28</ele>
        <time>2014-06-07T09:21:17Z</time>
      </trkpt>
      <trkpt lat="48.0827" lon="7.65134">
        <ele>396.2</ele>
        <time>2014-06-07T09:21:36Z</time>
      </trkpt>
      <trkpt lat="48.08273" lon="7.65145">
        <ele>396.68</ele>
        <time>2014-06-07T09:21:51Z</time>
      </trkpt>
      <trkpt lat="48.08273" lon="7.65151">
        <ele>398.6</ele>
        <time>2014-06-07T09:22:04Z</time>
      </trkpt>
      <trkpt lat="48.08273" lon="7.65145">
        <ele>399.08</ele>
        <time>2014-06-07T09:22:22Z</time>
      </trkpt>
      <trkpt lat="48.08271" lon="7.65148">
        <ele>399.08</ele>
        <time>2014-06-07T09:22:52Z</time>
      </trkpt>
      <trkpt lat="48.08271" lon="7.65159">
        <ele>400.05</ele>
        <time>2014-06-07T09:23:05Z</time>
      </trkpt>
      <trkpt lat="48.08271" lon="7.65161">
        <ele>400.05</ele>
        <time>2014-06-07T09:23:21Z</time>
      </trkpt>
      <trkpt lat="48.08269" lon="7.65164">
        <ele>399.08</ele>
        <time>2014-06-07T09:23:44Z</time>
      </trkpt>
      <trkpt lat="48.08269" lon="7.65162">
        <ele>399.57</ele>
        <time>2014-06-07T09:24:07Z</time>
      </trkpt>
      <trkpt lat="48.08272" lon="7.65158">
        <ele>400.53</ele>
        <time>2014-06-07T09:24:36Z</time>
      </trkpt>
      <trkpt lat="48.0827" lon="7.65156">
        <ele>400.05</ele>
        <time>2014-06-07T09:24:57Z</time>
      </trkpt>
      <trkpt lat="48.08272" lon="7.65157">
        <ele>400.53</ele>
        <time>2014-06-07T09:25:29Z</time>
      </trkpt>
      <trkpt lat="48.0827" lon="7.65156">
        <ele>400.53</ele>
        <time>2014-06-07T09:25:58Z</time>
      </trkpt>
      <trkpt lat="48.08269" lon="7.65156">
        <ele>400.05</ele>
        <time>2014-06-07T09:26:28Z</time>
      </trkpt>
      <trkpt lat="48.08272" lon="7.6515">
        <ele>400.53</ele>
        <time>2014-06-07T09:26:41Z</time>
      </trkpt>
      <trkpt lat="48.08278" lon="7.65148">
        <ele>400.53</ele>
        <time>2014-06-07T09:26:55Z</time>
      </trkpt>
      <trkpt lat="48.08275" lon="7.65138">
        <ele>400.05</ele>
        <time>2014-06-07T09:27:25Z</time>
      </trkpt>
      <trkpt lat="48.08274" lon="7.65138">
        <ele>399.57</ele>
        <time>2014-06-07T09:27:26Z</time>
      </trkpt>
      <trkpt lat="48.08271" lon="7.65137">
        <ele>399.08</ele>
        <time>2014-06-07T09:27:29Z</time>
      </trkpt>
      <trkpt lat="48.08263" lon="7.65166">
        <ele>398.12</ele>
        <time>2014-06-07T09:27:48Z</time>
      </trkpt>
      <trkpt lat="48.08275" lon="7.65189">
        <ele>397.16</ele>
        <time>2014-06-07T09:28:07Z</time>
      </trkpt>
      <trkpt lat="48.08284" lon="7.65213">
        <ele>395.24</ele>
        <time>2014-06-07T09:28:26Z</time>
      </trkpt>
      <trkpt lat="48.08286" lon="7.65233">
        <ele>393.32</ele>
        <time>2014-06-07T09:28:42Z</time>
      </trkpt>
      <trkpt lat="48.08287" lon="7.65254">
        <ele>391.39</ele>
        <time>2014-06-07T09:28:57Z</time>
      </trkpt>
      <trkpt lat="48.08293" lon="7.65283">
        <ele>391.87</ele>
        <time>2014-06-07T09:29:14Z</time>
      </trkpt>
      <trkpt lat="48.08298" lon="7.65307">
        <ele>391.39</ele>
        <time>2014-06-07T09:29:29Z</time>
      </trkpt>
      <trkpt lat="48.08302" lon="7.65331">
        <ele>390.91</ele>
        <time>2014-06-07T09:29:44Z</time>
      </trkpt>
      <trkpt lat="48.08302" lon="7.65335">
        <ele>390.91</ele>
        <time>2014-06-07T09:29:47Z</time>
      </trkpt>
      <trkpt lat="48.08303" lon="7.65367">
        <ele>389.95</ele>
        <time>2014-06-07T09:30:06Z</time>
      </trkpt>
      <trkpt lat="48.08298" lon="7.65401">
        <ele>389.95</ele>
        <time>2014-06-07T09:30:27Z</time>
      </trkpt>
      <trkpt lat="48.08292" lon="7.65431">
        <ele>389.47</ele>
        <time>2014-06-07T09:30:46Z</time>
      </trkpt>
      <trkpt lat="48.08284" lon="7.65461">
        <ele>389.47</ele>
        <time>2014-06-07T09:31:05Z</time>
      </trkpt>
      <trkpt lat="48.08283" lon="7.65494">
        <ele>388.51</ele>
        <time>2014-06-07T09:31:24Z</time>
      </trkpt>
      <trkpt lat="48.08289" lon="7.65521">
        <ele>387.55</ele>
        <time>2014-06-07T09:31:40Z</time>
      </trkpt>
      <trkpt lat="48.08303" lon="7.65548">
        <ele>385.63</ele>
        <time>2014-06-07T09:31:59Z</time>
      </trkpt>
      <trkpt lat="48.08313" lon="7.65578">
        <ele>383.22</ele>
        <time>2014-06-07T09:32:17Z</time>
      </trkpt>
      <trkpt lat="48.08318" lon="7.65608">
        <ele>381.78</ele>
        <time>2014-06-07T09:32:36Z</time>
      </trkpt>
      <trkpt lat="48.08319" lon="7.6564">
        <ele>381.78</ele>
        <time>2014-06-07T09:32:54Z</time>
      </trkpt>
      <trkpt lat="48.08313" lon="7.65658">
        <ele>382.26</ele>
        <time>2014-06-07T09:33:06Z</time>
      </trkpt>
      <trkpt lat="48.08306" lon="7.6569">
        <ele>383.22</ele>
        <time>2014-06-07T09:33:24Z</time>
      </trkpt>
      <trkpt lat="48.08304" lon="7.65721">
        <ele>383.7</ele>
        <time>2014-06-07T09:33:42Z</time>
      </trkpt>
      <trkpt lat="48.08301" lon="7.65752">
        <ele>383.7</ele>
        <time>2014-06-07T09:33:59Z</time>
      </trkpt>
      <trkpt lat="48.08302" lon="7.65788">
        <ele>384.66</ele>
        <time>2014-06-07T09:34:20Z</time>
      </trkpt>
      <trkpt lat="48.08304" lon="7.65816">
        <ele>385.15</ele>
        <time>2014-06-07T09:34:35Z</time>
      </trkpt>
      <trkpt lat="48.08315" lon="7.65846">
        <ele>386.11</ele>
        <time>2014-06-07T09:34:55Z</time>
      </trkpt>
      <trkpt lat="48.08315" lon="7.65878">
        <ele>386.59</ele>
        <time>2014-06-07T09:35:14Z</time>
      </trkpt>
      <trkpt lat="48.08314" lon="7.65882">
        <ele>386.59</ele>
        <time>2014-06-07T09:35:17Z</time>
      </trkpt>
      <trkpt lat="48.0831" lon="7.65899">
        <ele>387.55</ele>
        <time>2014-06-07T09:35:29Z</time>
      </trkpt>
      <trkpt lat="48.08305" lon="7.65928">
        <ele>388.99</ele>
        <time>2014-06-07T09:35:47Z</time>
      </trkpt>
      <trkpt lat="48.08301" lon="7.65928">
        <ele>389.47</ele>
        <time>2014-06-07T09:36:07Z</time>
      </trkpt>
      <trkpt lat="48.08302" lon="7.65932">
        <ele>389.95</ele>
        <time>2014-06-07T09:36:19Z</time>
      </trkpt>
      <trkpt lat="48.08292" lon="7.6595">
        <ele>391.87</ele>
        <time>2014-06-07T09:36:37Z</time>
      </trkpt>
      <trkpt lat="48.08285" lon="7.65971">
        <ele>394.76</ele>
        <time>2014-06-07T09:36:56Z</time>
      </trkpt>
      <trkpt lat="48.0828" lon="7.65987">
        <ele>397.16</ele>
        <time>2014-06-07T09:37:12Z</time>
      </trkpt>
      <trkpt lat="48.08277" lon="7.66005">
        <ele>399.57</ele>
        <time>2014-06-07T09:37:28Z</time>
      </trkpt>
      <trkpt lat="48.08278" lon="7.66002">
        <ele>399.57</ele>
        <time>2014-06-07T09:37:47Z</time>
      </trkpt>
      <trkpt lat="48.08273" lon="7.66013">
        <ele>400.05</ele>
        <time>2014-06-07T09:38:10Z</time>
      </trkpt>
      <trkpt lat="48.08272" lon="7.66027">
        <ele>402.45</ele>
        <time>2014-06-07T09:38:27Z</time>
      </trkpt>
      <trkpt lat="48.08263" lon="7.66045">
        <ele>404.37</ele>
        <time>2014-06-07T09:38:46Z</time>
      </trkpt>
      <trkpt lat="48.08253" lon="7.66069">
        <ele>407.26</ele>
        <time>2014-06-07T09:39:07Z</time>
      </trkpt>
      <trkpt lat="48.08247" lon="7.66086">
        <ele>408.7</ele>
        <time>2014-06-07T09:39:24Z</time>
      </trkpt>
      <trkpt lat="48.08241" lon="7.66103">
        <ele>411.1</ele>
        <time>2014-06-07T09:39:42Z</time>
      </trkpt>
      <trkpt lat="48.08238" lon="7.66115">
        <ele>414.47</ele>
        <time>2014-06-07T09:39:59Z</time>
      </trkpt>
      <trkpt lat="48.08231" lon="7.66132">
        <ele>417.35</ele>
        <time>2014-06-07T09:40:20Z</time>
      </trkpt>
      <trkpt lat="48.08225" lon="7.66148">
        <ele>419.27</ele>
        <time>2014-06-07T09:40:38Z</time>
      </trkpt>
      <trkpt lat="48.08219" lon="7.66162">
        <ele>421.19</ele>
        <time>2014-06-07T09:40:55Z</time>
      </trkpt>
      <trkpt lat="48.08216" lon="7.66171">
        <ele>423.6</ele>
        <time>2014-06-07T09:41:13Z</time>
      </trkpt>
      <trkpt lat="48.08218" lon="7.66187">
        <ele>426</ele>
        <time>2014-06-07T09:41:34Z</time>
      </trkpt>
      <trkpt lat="48.08209" lon="7.66198">
        <ele>427.92</ele>
        <time>2014-06-07T09:41:55Z</time>
      </trkpt>
      <trkpt lat="48.082" lon="7.662">
        <ele>430.81</ele>
        <time>2014-06-07T09:42:12Z</time>
      </trkpt>
      <trkpt lat="48.08189" lon="7.66206">
        <ele>433.69</ele>
        <time>2014-06-07T09:42:31Z</time>
      </trkpt>
      <trkpt lat="48.08183" lon="7.66213">
        <ele>436.1</ele>
        <time>2014-06-07T09:42:50Z</time>
      </trkpt>
      <trkpt lat="48.08175" lon="7.66228">
        <ele>439.46</ele>
        <time>2014-06-07T09:43:10Z</time>
      </trkpt>
      <trkpt lat="48.08177" lon="7.66241">
        <ele>440.9</ele>
        <time>2014-06-07T09:43:30Z</time>
      </trkpt>
      <trkpt lat="48.08165" lon="7.66244">
        <ele>442.34</ele>
        <time>2014-06-07T09:43:48Z</time>
      </trkpt>
      <trkpt lat="48.08175" lon="7.66249">
        <ele>442.34</ele>
        <time>2014-06-07T09:44:16Z</time>
      </trkpt>
      <trkpt lat="48.08178" lon="7.66249">
        <ele>442.34</ele>
        <time>2014-06-07T09:44:52Z</time>
      </trkpt>
      <trkpt lat="48.08155" lon="7.6627">
        <ele>441.38</ele>
        <time>2014-06-07T09:45:16Z</time>
      </trkpt>
      <trkpt lat="48.08146" lon="7.66287">
        <ele>439.46</ele>
        <time>2014-06-07T09:45:35Z</time>
      </trkpt>
      <trkpt lat="48.08133" lon="7.66304">
        <ele>438.5</ele>
        <time>2014-06-07T09:45:54Z</time>
      </trkpt>
      <trkpt lat="48.08117" lon="7.66314">
        <ele>438.5</ele>
        <time>2014-06-07T09:46:12Z</time>
      </trkpt>
      <trkpt lat="48.081" lon="7.66329">
        <ele>440.9</ele>
        <time>2014-06-07T09:46:32Z</time>
      </trkpt>
      <trkpt lat="48.08091" lon="7.66349">
        <ele>443.31</ele>
        <time>2014-06-07T09:46:53Z</time>
      </trkpt>
      <trkpt lat="48.08073" lon="7.66356">
        <ele>445.71</ele>
        <time>2014-06-07T09:47:16Z</time>
      </trkpt>
      <trkpt lat="48.08056" lon="7.66359">
        <ele>446.67</ele>
        <time>2014-06-07T09:47:37Z</time>
      </trkpt>
      <trkpt lat="48.08041" lon="7.66356">
        <ele>449.55</ele>
        <time>2014-06-07T09:47:59Z</time>
      </trkpt>
      <trkpt lat="48.0803" lon="7.66356">
        <ele>452.44</ele>
        <time>2014-06-07T09:48:21Z</time>
      </trkpt>
      <trkpt lat="48.08019" lon="7.66366">
        <ele>455.8</ele>
        <time>2014-06-07T09:48:39Z</time>
      </trkpt>
      <trkpt lat="48.08018" lon="7.66386">
        <ele>459.17</ele>
        <time>2014-06-07T09:48:57Z</time>
      </trkpt>
      <trkpt lat="48.08029" lon="7.66412">
        <ele>461.57</ele>
        <time>2014-06-07T09:49:17Z</time>
      </trkpt>
      <trkpt lat="48.08032" lon="7.66424">
        <ele>464.93</ele>
        <time>2014-06-07T09:49:34Z</time>
      </trkpt>
      <trkpt lat="48.08032" lon="7.66433">
        <ele>467.34</ele>
        <time>2014-06-07T09:49:53Z</time>
      </trkpt>
      <trkpt lat="48.08043" lon="7.66445">
        <ele>470.7</ele>
        <time>2014-06-07T09:50:11Z</time>
      </trkpt>
      <trkpt lat="48.08044" lon="7.66458">
        <ele>473.11</ele>
        <time>2014-06-07T09:50:32Z</time>
      </trkpt>
      <trkpt lat="48.08045" lon="7.6647">
        <ele>475.99</ele>
        <time>2014-06-07T09:50:53Z</time>
      </trkpt>
      <trkpt lat="48.08045" lon="7.6648">
        <ele>478.39</ele>
        <time>2014-06-07T09:51:10Z</time>
      </trkpt>
      <trkpt lat="48.08054" lon="7.66494">
        <ele>481.28</ele>
        <time>2014-06-07T09:51:30Z</time>
      </trkpt>
      <trkpt lat="48.08059" lon="7.66486">
        <ele>481.28</ele>
        <time>2014-06-07T09:52:01Z</time>
      </trkpt>
      <trkpt lat="48.08066" lon="7.6649">
        <ele>482.24</ele>
        <time>2014-06-07T09:52:29Z</time>
      </trkpt>
      <trkpt lat="48.0807" lon="7.66476">
        <ele>482.24</ele>
        <time>2014-06-07T09:53:00Z</time>
      </trkpt>
      <trkpt lat="48.08073" lon="7.66482">
        <ele>482.24</ele>
        <time>2014-06-07T09:53:30Z</time>
      </trkpt>
      <trkpt lat="48.08066" lon="7.66478">
        <ele>482.24</ele>
        <time>2014-06-07T09:53:55Z</time>
      </trkpt>
      <trkpt lat="48.08074" lon="7.66481">
        <ele>484.64</ele>
        <time>2014-06-07T09:54:14Z</time>
      </trkpt>
      <trkpt lat="48.08087" lon="7.66503">
        <ele>487.05</ele>
        <time>2014-06-07T09:54:35Z</time>
      </trkpt>
      <trkpt lat="48.08082" lon="7.66523">
        <ele>488.49</ele>
        <time>2014-06-07T09:54:50Z</time>
      </trkpt>
      <trkpt lat="48.08078" lon="7.66537">
        <ele>490.89</ele>
        <time>2014-06-07T09:55:06Z</time>
      </trkpt>
      <trkpt lat="48.08072" lon="7.66552">
        <ele>492.33</ele>
        <time>2014-06-07T09:55:22Z</time>
      </trkpt>
      <trkpt lat="48.08072" lon="7.66572">
        <ele>493.77</ele>
        <time>2014-06-07T09:55:40Z</time>
      </trkpt>
      <trkpt lat="48.08078" lon="7.66599">
        <ele>494.74</ele>
        <time>2014-06-07T09:55:58Z</time>
      </trkpt>
      <trkpt lat="48.08083" lon="7.66619">
        <ele>496.66</ele>
        <time>2014-06-07T09:56:14Z</time>
      </trkpt>
      <trkpt lat="48.08089" lon="7.66645">
        <ele>499.06</ele>
        <time>2014-06-07T09:56:35Z</time>
      </trkpt>
      <trkpt lat="48.08111" lon="7.66659">
        <ele>500.5</ele>
        <time>2014-06-07T09:56:57Z</time>
      </trkpt>
      <trkpt lat="48.08126" lon="7.66664">
        <ele>502.43</ele>
        <time>2014-06-07T09:57:16Z</time>
      </trkpt>
      <trkpt lat="48.08145" lon="7.66669">
        <ele>503.39</ele>
        <time>2014-06-07T09:57:36Z</time>
      </trkpt>
      <trkpt lat="48.08126" lon="7.66666">
        <ele>504.35</ele>
        <time>2014-06-07T09:58:01Z</time>
      </trkpt>
      <trkpt lat="48.08151" lon="7.66683">
        <ele>504.83</ele>
        <time>2014-06-07T09:58:18Z</time>
      </trkpt>
      <trkpt lat="48.08152" lon="7.66704">
        <ele>505.79</ele>
        <time>2014-06-07T09:58:39Z</time>
      </trkpt>
      <trkpt lat="48.08134" lon="7.6672">
        <ele>507.23</ele>
        <time>2014-06-07T09:58:59Z</time>
      </trkpt>
      <trkpt lat="48.08126" lon="7.66731">
        <ele>508.67</ele>
        <time>2014-06-07T09:59:20Z</time>
      </trkpt>
      <trkpt lat="48.08117" lon="7.66754">
        <ele>509.16</ele>
        <time>2014-06-07T09:59:37Z</time>
      </trkpt>
      <trkpt lat="48.08119" lon="7.66778">
        <ele>510.12</ele>
        <time>2014-06-07T09:59:52Z</time>
      </trkpt>
      <trkpt lat="48.08117" lon="7.66801">
        <ele>510.6</ele>
        <time>2014-06-07T10:00:09Z</time>
      </trkpt>
      <trkpt lat="48.0812" lon="7.66824">
        <ele>512.04</ele>
        <time>2014-06-07T10:00:30Z</time>
      </trkpt>
      <trkpt lat="48.08122" lon="7.66847">
        <ele>512.52</ele>
        <time>2014-06-07T10:00:46Z</time>
      </trkpt>
      <trkpt lat="48.08129" lon="7.66874">
        <ele>513.96</ele>
        <time>2014-06-07T10:01:05Z</time>
      </trkpt>
      <trkpt lat="48.08152" lon="7.66885">
        <ele>515.4</ele>
        <time>2014-06-07T10:01:28Z</time>
      </trkpt>
      <trkpt lat="48.08171" lon="7.66884">
        <ele>516.37</ele>
        <time>2014-06-07T10:01:50Z</time>
      </trkpt>
      <trkpt lat="48.08188" lon="7.6691">
        <ele>518.29</ele>
        <time>2014-06-07T10:02:13Z</time>
      </trkpt>
      <trkpt lat="48.08194" lon="7.66936">
        <ele>518.77</ele>
        <time>2014-06-07T10:02:33Z</time>
      </trkpt>
      <trkpt lat="48.08205" lon="7.6695">
        <ele>520.69</ele>
        <time>2014-06-07T10:02:50Z</time>
      </trkpt>
      <trkpt lat="48.08226" lon="7.66956">
        <ele>522.13</ele>
        <time>2014-06-07T10:03:11Z</time>
      </trkpt>
      <trkpt lat="48.08246" lon="7.66965">
        <ele>523.58</ele>
        <time>2014-06-07T10:03:28Z</time>
      </trkpt>
      <trkpt lat="48.08239" lon="7.66984">
        <ele>525.02</ele>
        <time>2014-06-07T10:03:43Z</time>
      </trkpt>
      <trkpt lat="48.08224" lon="7.66993">
        <ele>527.42</ele>
        <time>2014-06-07T10:04:00Z</time>
      </trkpt>
      <trkpt lat="48.08209" lon="7.66991">
        <ele>529.34</ele>
        <time>2014-06-07T10:04:21Z</time>
      </trkpt>
      <trkpt lat="48.08192" lon="7.66987">
        <ele>531.27</ele>
        <time>2014-06-07T10:04:38Z</time>
      </trkpt>
      <trkpt lat="48.08195" lon="7.66992">
        <ele>532.71</ele>
        <time>2014-06-07T10:04:57Z</time>
      </trkpt>
      <trkpt lat="48.08194" lon="7.66995">
        <ele>532.23</ele>
        <time>2014-06-07T10:05:31Z</time>
      </trkpt>
      <trkpt lat="48.08191" lon="7.66996">
        <ele>533.19</ele>
        <time>2014-06-07T10:06:05Z</time>
      </trkpt>
      <trkpt lat="48.08182" lon="7.67002">
        <ele>533.67</ele>
        <time>2014-06-07T10:06:29Z</time>
      </trkpt>
      <trkpt lat="48.0818" lon="7.67021">
        <ele>533.67</ele>
        <time>2014-06-07T10:06:49Z</time>
      </trkpt>
      <trkpt lat="48.0817" lon="7.67033">
        <ele>535.11</ele>
        <time>2014-06-07T10:07:06Z</time>
      </trkpt>
      <trkpt lat="48.08159" lon="7.67045">
        <ele>536.07</ele>
        <time>2014-06-07T10:07:22Z</time>
      </trkpt>
      <trkpt lat="48.08146" lon="7.67062">
        <ele>537.99</ele>
        <time>2014-06-07T10:07:39Z</time>
      </trkpt>
      <trkpt lat="48.08134" lon="7.67069">
        <ele>537.99</ele>
        <time>2014-06-07T10:07:54Z</time>
      </trkpt>
      <trkpt lat="48.08127" lon="7.6708">
        <ele>539.92</ele>
        <time>2014-06-07T10:08:08Z</time>
      </trkpt>
      <trkpt lat="48.08122" lon="7.67091">
        <ele>541.36</ele>
        <time>2014-06-07T10:08:23Z</time>
      </trkpt>
      <trkpt lat="48.08113" lon="7.67103">
        <ele>543.28</ele>
        <time>2014-06-07T10:08:38Z</time>
      </trkpt>
      <trkpt lat="48.08105" lon="7.6711">
        <ele>544.72</ele>
        <time>2014-06-07T10:08:54Z</time>
      </trkpt>
      <trkpt lat="48.08106" lon="7.67111">
        <ele>544.24</ele>
        <time>2014-06-07T10:09:14Z</time>
      </trkpt>
      <trkpt lat="48.08104" lon="7.67105">
        <ele>544.24</ele>
        <time>2014-06-07T10:09:42Z</time>
      </trkpt>
      <trkpt lat="48.08106" lon="7.67115">
        <ele>544.24</ele>
        <time>2014-06-07T10:10:04Z</time>
      </trkpt>
      <trkpt lat="48.081" lon="7.6712">
        <ele>544.24</ele>
        <time>2014-06-07T10:10:30Z</time>
      </trkpt>
      <trkpt lat="48.08098" lon="7.67108">
        <ele>544.72</ele>
        <time>2014-06-07T10:10:56Z</time>
      </trkpt>
      <trkpt lat="48.08099" lon="7.67099">
        <ele>545.2</ele>
        <time>2014-06-07T10:11:26Z</time>
      </trkpt>
      <trkpt lat="48.08104" lon="7.67109">
        <ele>545.2</ele>
        <time>2014-06-07T10:11:51Z</time>
      </trkpt>
      <trkpt lat="48.08101" lon="7.67125">
        <ele>545.2</ele>
        <time>2014-06-07T10:12:17Z</time>
      </trkpt>
      <trkpt lat="48.08097" lon="7.67144">
        <ele>546.17</ele>
        <time>2014-06-07T10:12:33Z</time>
      </trkpt>
      <trkpt lat="48.08094" lon="7.67163">
        <ele>547.61</ele>
        <time>2014-06-07T10:12:48Z</time>
      </trkpt>
      <trkpt lat="48.08091" lon="7.67179">
        <ele>549.53</ele>
        <time>2014-06-07T10:13:02Z</time>
      </trkpt>
      <trkpt lat="48.08093" lon="7.67196">
        <ele>550.49</ele>
        <time>2014-06-07T10:13:15Z</time>
      </trkpt>
      <trkpt lat="48.08094" lon="7.67213">
        <ele>551.45</ele>
        <time>2014-06-07T10:13:29Z</time>
      </trkpt>
      <trkpt lat="48.08093" lon="7.67227">
        <ele>552.9</ele>
        <time>2014-06-07T10:13:43Z</time>
      </trkpt>
      <trkpt lat="48.08096" lon="7.6723">
        <ele>552.41</ele>
        <time>2014-06-07T10:14:09Z</time>
      </trkpt>
      <trkpt lat="48.08091" lon="7.67244">
        <ele>554.82</ele>
        <time>2014-06-07T10:14:26Z</time>
      </trkpt>
      <trkpt lat="48.08093" lon="7.67262">
        <ele>556.26</ele>
        <time>2014-06-07T10:14:41Z</time>
      </trkpt>
      <trkpt lat="48.08087" lon="7.67264">
        <ele>556.26</ele>
        <time>2014-06-07T10:14:56Z</time>
      </trkpt>
      <trkpt lat="48.08088" lon="7.67266">
        <ele>556.74</ele>
        <time>2014-06-07T10:15:24Z</time>
      </trkpt>
      <trkpt lat="48.0809" lon="7.67269">
        <ele>559.62</ele>
        <time>2014-06-07T10:15:40Z</time>
      </trkpt>
      <trkpt lat="48.0809" lon="7.67272">
        <ele>562.99</ele>
        <time>2014-06-07T10:15:50Z</time>
      </trkpt>
      <trkpt lat="48.08091" lon="7.67263">
        <ele>565.39</ele>
        <time>2014-06-07T10:16:05Z</time>
      </trkpt>
      <trkpt lat="48.0809" lon="7.67261">
        <ele>565.87</ele>
        <time>2014-06-07T10:16:18Z</time>
      </trkpt>
      <trkpt lat="48.0809" lon="7.6726">
        <ele>565.87</ele>
        <time>2014-06-07T10:16:36Z</time>
      </trkpt>
      <trkpt lat="48.08089" lon="7.67259">
        <ele>565.87</ele>
        <time>2014-06-07T10:16:55Z</time>
      </trkpt>
      <trkpt lat="48.08089" lon="7.67259">
        <ele>566.83</ele>
        <time>2014-06-07T10:17:14Z</time>
      </trkpt>
      <trkpt lat="48.08089" lon="7.67259">
        <ele>566.35</ele>
        <time>2014-06-07T10:17:30Z</time>
      </trkpt>
      <trkpt lat="48.08092" lon="7.6726">
        <ele>565.87</ele>
        <time>2014-06-07T10:17:50Z</time>
      </trkpt>
      <trkpt lat="48.08091" lon="7.67258">
        <ele>566.35</ele>
        <time>2014-06-07T10:18:08Z</time>
      </trkpt>
      <trkpt lat="48.08091" lon="7.67259">
        <ele>565.87</ele>
        <time>2014-06-07T10:18:13Z</time>
      </trkpt>
      <trkpt lat="48.08089" lon="7.67258">
        <ele>566.83</ele>
        <time>2014-06-07T10:18:35Z</time>
      </trkpt>
      <trkpt lat="48.08089" lon="7.67256">
        <ele>566.35</ele>
        <time>2014-06-07T10:19:03Z</time>
      </trkpt>
      <trkpt lat="48.0809" lon="7.67262">
        <ele>566.83</ele>
        <time>2014-06-07T10:19:24Z</time>
      </trkpt>
      <trkpt lat="48.08094" lon="7.67258">
        <ele>566.83</ele>
        <time>2014-06-07T10:19:42Z</time>
      </trkpt>
      <trkpt lat="48.08092" lon="7.67261">
        <ele>566.83</ele>
        <time>2014-06-07T10:20:07Z</time>
      </trkpt>
      <trkpt lat="48.0809" lon="7.67259">
        <ele>566.83</ele>
        <time>2014-06-07T10:20:27Z</time>
      </trkpt>
      <trkpt lat="48.0809" lon="7.67261">
        <ele>567.32</ele>
        <time>2014-06-07T10:20:46Z</time>
      </trkpt>
      <trkpt lat="48.0809" lon="7.67261">
        <ele>566.83</ele>
        <time>2014-06-07T10:21:14Z</time>
      </trkpt>
      <trkpt lat="48.08091" lon="7.67261">
        <ele>566.83</ele>
        <time>2014-06-07T10:21:43Z</time>
      </trkpt>
      <trkpt lat="48.0809" lon="7.67259">
        <ele>566.83</ele>
        <time>2014-06-07T10:21:59Z</time>
      </trkpt>
      <trkpt lat="48.08089" lon="7.67261">
        <ele>566.83</ele>
        <time>2014-06-07T10:22:26Z</time>
      </trkpt>
      <trkpt lat="48.08088" lon="7.67258">
        <ele>567.32</ele>
        <time>2014-06-07T10:22:54Z</time>
      </trkpt>
      <trkpt lat="48.08089" lon="7.67259">
        <ele>567.8</ele>
        <time>2014-06-07T10:23:17Z</time>
      </trkpt>
      <trkpt lat="48.08091" lon="7.67258">
        <ele>566.35</ele>
        <time>2014-06-07T10:23:36Z</time>
      </trkpt>
      <trkpt lat="48.0809" lon="7.67255">
        <ele>564.91</ele>
        <time>2014-06-07T10:23:59Z</time>
      </trkpt>
      <trkpt lat="48.08082" lon="7.6725">
        <ele>562.03</ele>
        <time>2014-06-07T10:24:10Z</time>
      </trkpt>
      <trkpt lat="48.08078" lon="7.6725">
        <ele>560.59</ele>
        <time>2014-06-07T10:24:14Z</time>
      </trkpt>
      <trkpt lat="48.08072" lon="7.67251">
        <ele>557.22</ele>
        <time>2014-06-07T10:24:21Z</time>
      </trkpt>
      <trkpt lat="48.08091" lon="7.67281">
        <ele>556.26</ele>
        <time>2014-06-07T10:24:37Z</time>
      </trkpt>
      <trkpt lat="48.08089" lon="7.67269">
        <ele>556.26</ele>
        <time>2014-06-07T10:24:52Z</time>
      </trkpt>
      <trkpt lat="48.08091" lon="7.67271">
        <ele>556.26</ele>
        <time>2014-06-07T10:25:20Z</time>
      </trkpt>
      <trkpt lat="48.08091" lon="7.6727">
        <ele>556.74</ele>
        <time>2014-06-07T10:25:47Z</time>
      </trkpt>
      <trkpt lat="48.08094" lon="7.6727">
        <ele>555.78</ele>
        <time>2014-06-07T10:26:07Z</time>
      </trkpt>
      <trkpt lat="48.0809" lon="7.67274">
        <ele>556.74</ele>
        <time>2014-06-07T10:26:27Z</time>
      </trkpt>
      <trkpt lat="48.08092" lon="7.67276">
        <ele>556.74</ele>
        <time>2014-06-07T10:26:54Z</time>
      </trkpt>
      <trkpt lat="48.08094" lon="7.67276">
        <ele>557.7</ele>
        <time>2014-06-07T10:27:28Z</time>
      </trkpt>
      <trkpt lat="48.08092" lon="7.67274">
        <ele>557.7</ele>
        <time>2014-06-07T10:27:59Z</time>
      </trkpt>
      <trkpt lat="48.0809" lon="7.67276">
        <ele>557.7</ele>
        <time>2014-06-07T10:28:28Z</time>
      </trkpt>
      <trkpt lat="48.08089" lon="7.67276">
        <ele>558.18</ele>
        <time>2014-06-07T10:29:03Z</time>
      </trkpt>
      <trkpt lat="48.08091" lon="7.67275">
        <ele>559.14</ele>
        <time>2014-06-07T10:29:33Z</time>
      </trkpt>
      <trkpt lat="48.0809" lon="7.67276">
        <ele>559.14</ele>
        <time>2014-06-07T10:30:11Z</time>
      </trkpt>
      <trkpt lat="48.08089" lon="7.67276">
        <ele>559.14</ele>
        <time>2014-06-07T10:30:38Z</time>
      </trkpt>
      <trkpt lat="48.08089" lon="7.67274">
        <ele>559.62</ele>
        <time>2014-06-07T10:31:14Z</time>
      </trkpt>
      <trkpt lat="48.08092" lon="7.67275">
        <ele>560.11</ele>
        <time>2014-06-07T10:31:52Z</time>
      </trkpt>
      <trkpt lat="48.0809" lon="7.67276">
        <ele>560.11</ele>
        <time>2014-06-07T10:32:21Z</time>
      </trkpt>
      <trkpt lat="48.0809" lon="7.67275">
        <ele>560.11</ele>
        <time>2014-06-07T10:32:47Z</time>
      </trkpt>
      <trkpt lat="48.08089" lon="7.67272">
        <ele>560.59</ele>
        <time>2014-06-07T10:33:18Z</time>
      </trkpt>
      <trkpt lat="48.08092" lon="7.67275">
        <ele>560.59</ele>
        <time>2014-06-07T10:33:51Z</time>
      </trkpt>
      <trkpt lat="48.08092" lon="7.67275">
        <ele>561.07</ele>
        <time>2014-06-07T10:34:23Z</time>
      </trkpt>
      <trkpt lat="48.08093" lon="7.67275">
        <ele>561.07</ele>
        <time>2014-06-07T10:34:56Z</time>
      </trkpt>
      <trkpt lat="48.08093" lon="7.67275">
        <ele>561.07</ele>
        <time>2014-06-07T10:35:30Z</time>
      </trkpt>
      <trkpt lat="48.08092" lon="7.67274">
        <ele>561.07</ele>
        <time>2014-06-07T10:36:05Z</time>
      </trkpt>
      <trkpt lat="48.08091" lon="7.67276">
        <ele>561.07</ele>
        <time>2014-06-07T10:36:39Z</time>
      </trkpt>
      <trkpt lat="48.0809" lon="7.67275">
        <ele>561.55</ele>
        <time>2014-06-07T10:37:07Z</time>
      </trkpt>
      <trkpt lat="48.08091" lon="7.67272">
        <ele>561.55</ele>
        <time>2014-06-07T10:37:45Z</time>
      </trkpt>
      <trkpt lat="48.08091" lon="7.67274">
        <ele>562.03</ele>
        <time>2014-06-07T10:38:11Z</time>
      </trkpt>
      <trkpt lat="48.08091" lon="7.67276">
        <ele>561.55</ele>
        <time>2014-06-07T10:38:45Z</time>
      </trkpt>
      <trkpt lat="48.08093" lon="7.67277">
        <ele>562.03</ele>
        <time>2014-06-07T10:39:21Z</time>
      </trkpt>
      <trkpt lat="48.08092" lon="7.67277">
        <ele>562.51</ele>
        <time>2014-06-07T10:39:52Z</time>
      </trkpt>
      <trkpt lat="48.08091" lon="7.67271">
        <ele>562.99</ele>
        <time>2014-06-07T10:40:28Z</time>
      </trkpt>
      <trkpt lat="48.08093" lon="7.67273">
        <ele>562.99</ele>
        <time>2014-06-07T10:41:00Z</time>
      </trkpt>
      <trkpt lat="48.08092" lon="7.67273">
        <ele>562.99</ele>
        <time>2014-06-07T10:41:31Z</time>
      </trkpt>
      <trkpt lat="48.0809" lon="7.67275">
        <ele>563.47</ele>
        <time>2014-06-07T10:42:02Z</time>
      </trkpt>
      <trkpt lat="48.08087" lon="7.67273">
        <ele>563.95</ele>
        <time>2014-06-07T10:42:35Z</time>
      </trkpt>
      <trkpt lat="48.08089" lon="7.67274">
        <ele>563.47</ele>
        <time>2014-06-07T10:43:05Z</time>
      </trkpt>
      <trkpt lat="48.0809" lon="7.67274">
        <ele>563.47</ele>
        <time>2014-06-07T10:43:36Z</time>
      </trkpt>
      <trkpt lat="48.08093" lon="7.6728">
        <ele>563.47</ele>
        <time>2014-06-07T10:44:09Z</time>
      </trkpt>
      <trkpt lat="48.08093" lon="7.6728">
        <ele>562.99</ele>
        <time>2014-06-07T10:44:36Z</time>
      </trkpt>
      <trkpt lat="48.08093" lon="7.6728">
        <ele>563.95</ele>
        <time>2014-06-07T10:45:14Z</time>
      </trkpt>
      <trkpt lat="48.08092" lon="7.6728">
        <ele>564.43</ele>
        <time>2014-06-07T10:45:37Z</time>
      </trkpt>
      <trkpt lat="48.08091" lon="7.67279">
        <ele>564.43</ele>
        <time>2014-06-07T10:46:07Z</time>
      </trkpt>
      <trkpt lat="48.08091" lon="7.67281">
        <ele>565.39</ele>
        <time>2014-06-07T10:46:30Z</time>
      </trkpt>
      <trkpt lat="48.08094" lon="7.67281">
        <ele>564.91</ele>
        <time>2014-06-07T10:47:09Z</time>
      </trkpt>
      <trkpt lat="48.08089" lon="7.67278">
        <ele>565.39</ele>
        <time>2014-06-07T10:47:39Z</time>
      </trkpt>
      <trkpt lat="48.08088" lon="7.67274">
        <ele>565.39</ele>
        <time>2014-06-07T10:48:22Z</time>
      </trkpt>
      <trkpt lat="48.08087" lon="7.67275">
        <ele>565.87</ele>
        <time>2014-06-07T10:48:59Z</time>
      </trkpt>
      <trkpt lat="48.08089" lon="7.67273">
        <ele>565.87</ele>
        <time>2014-06-07T10:49:26Z</time>
      </trkpt>
      <trkpt lat="48.08088" lon="7.67273">
        <ele>565.87</ele>
        <time>2014-06-07T10:49:58Z</time>
      </trkpt>
      <trkpt lat="48.08088" lon="7.67271">
        <ele>566.35</ele>
        <time>2014-06-07T10:50:37Z</time>
      </trkpt>
      <trkpt lat="48.08088" lon="7.67274">
        <ele>566.35</ele>
        <time>2014-06-07T10:51:14Z</time>
      </trkpt>
      <trkpt lat="48.08089" lon="7.67275">
        <ele>566.35</ele>
        <time>2014-06-07T10:51:47Z</time>
      </trkpt>
      <trkpt lat="48.0809" lon="7.67271">
        <ele>566.35</ele>
        <time>2014-06-07T10:52:28Z</time>
      </trkpt>
      <trkpt lat="48.0809" lon="7.67272">
        <ele>566.35</ele>
        <time>2014-06-07T10:53:05Z</time>
      </trkpt>
      <trkpt lat="48.0809" lon="7.67272">
        <ele>566.35</ele>
        <time>2014-06-07T10:53:42Z</time>
      </trkpt>
      <trkpt lat="48.08089" lon="7.67273">
        <ele>566.35</ele>
        <time>2014-06-07T10:54:21Z</time>
      </trkpt>
      <trkpt lat="48.08089" lon="7.67272">
        <ele>566.35</ele>
        <time>2014-06-07T10:55:01Z</time>
      </trkpt>
      <trkpt lat="48.08091" lon="7.67272">
        <ele>567.32</ele>
        <time>2014-06-07T10:55:36Z</time>
      </trkpt>
      <trkpt lat="48.08088" lon="7.67273">
        <ele>566.83</ele>
        <time>2014-06-07T10:56:13Z</time>
      </trkpt>
      <trkpt lat="48.08088" lon="7.67273">
        <ele>566.83</ele>
        <time>2014-06-07T10:56:40Z</time>
      </trkpt>
      <trkpt lat="48.08089" lon="7.67271">
        <ele>565.87</ele>
        <time>2014-06-07T10:57:10Z</time>
      </trkpt>
      <trkpt lat="48.08087" lon="7.67273">
        <ele>566.35</ele>
        <time>2014-06-07T10:57:46Z</time>
      </trkpt>
      <trkpt lat="48.08087" lon="7.6727">
        <ele>566.35</ele>
        <time>2014-06-07T10:58:24Z</time>
      </trkpt>
      <trkpt lat="48.08091" lon="7.67271">
        <ele>566.35</ele>
        <time>2014-06-07T10:58:53Z</time>
      </trkpt>
      <trkpt lat="48.0809" lon="7.6727">
        <ele>566.35</ele>
        <time>2014-06-07T10:59:22Z</time>
      </trkpt>
      <trkpt lat="48.0809" lon="7.67272">
        <ele>566.35</ele>
        <time>2014-06-07T10:59:55Z</time>
      </trkpt>
      <trkpt lat="48.08089" lon="7.67273">
        <ele>566.35</ele>
        <time>2014-06-07T11:00:23Z</time>
      </trkpt>
      <trkpt lat="48.08088" lon="7.67274">
        <ele>566.35</ele>
        <time>2014-06-07T11:00:50Z</time>
      </trkpt>
      <trkpt lat="48.08087" lon="7.67272">
        <ele>566.35</ele>
        <time>2014-06-07T11:01:21Z</time>
      </trkpt>
      <trkpt lat="48.0809" lon="7.67275">
        <ele>566.83</ele>
        <time>2014-06-07T11:01:51Z</time>
      </trkpt>
      <trkpt lat="48.08091" lon="7.67274">
        <ele>566.35</ele>
        <time>2014-06-07T11:02:16Z</time>
      </trkpt>
      <trkpt lat="48.0809" lon="7.67276">
        <ele>566.35</ele>
        <time>2014-06-07T11:02:45Z</time>
      </trkpt>
      <trkpt lat="48.08091" lon="7.67273">
        <ele>565.87</ele>
        <time>2014-06-07T11:03:16Z</time>
      </trkpt>
      <trkpt lat="48.0809" lon="7.67271">
        <ele>565.39</ele>
        <time>2014-06-07T11:03:45Z</time>
      </trkpt>
      <trkpt lat="48.08088" lon="7.67274">
        <ele>565.87</ele>
        <time>2014-06-07T11:04:18Z</time>
      </trkpt>
      <trkpt lat="48.08087" lon="7.67273">
        <ele>565.87</ele>
        <time>2014-06-07T11:04:47Z</time>
      </trkpt>
      <trkpt lat="48.08085" lon="7.67278">
        <ele>565.87</ele>
        <time>2014-06-07T11:05:14Z</time>
      </trkpt>
      <trkpt lat="48.08088" lon="7.67277">
        <ele>566.83</ele>
        <time>2014-06-07T11:05:41Z</time>
      </trkpt>
      <trkpt lat="48.08091" lon="7.67273">
        <ele>566.35</ele>
        <time>2014-06-07T11:06:07Z</time>
      </trkpt>
      <trkpt lat="48.0809" lon="7.67273">
        <ele>566.35</ele>
        <time>2014-06-07T11:06:44Z</time>
      </trkpt>
      <trkpt lat="48.08088" lon="7.67273">
        <ele>565.87</ele>
        <time>2014-06-07T11:07:11Z</time>
      </trkpt>
      <trkpt lat="48.08085" lon="7.67276">
        <ele>566.35</ele>
        <time>2014-06-07T11:07:39Z</time>
      </trkpt>
      <trkpt lat="48.08086" lon="7.67276">
        <ele>566.35</ele>
        <time>2014-06-07T11:08:05Z</time>
      </trkpt>
      <trkpt lat="48.08085" lon="7.67275">
        <ele>566.35</ele>
        <time>2014-06-07T11:08:27Z</time>
      </trkpt>
      <trkpt lat="48.08087" lon="7.67274">
        <ele>566.83</ele>
        <time>2014-06-07T11:08:56Z</time>
      </trkpt>
      <trkpt lat="48.08087" lon="7.67272">
        <ele>567.32</ele>
        <time>2014-06-07T11:09:31Z</time>
      </trkpt>
      <trkpt lat="48.08088" lon="7.67274">
        <ele>567.32</ele>
        <time>2014-06-07T11:10:04Z</time>
      </trkpt>
      <trkpt lat="48.08086" lon="7.67273">
        <ele>567.32</ele>
        <time>2014-06-07T11:10:36Z</time>
      </trkpt>
      <trkpt lat="48.08088" lon="7.67275">
        <ele>566.83</ele>
        <time>2014-06-07T11:11:17Z</time>
      </trkpt>
      <trkpt lat="48.08085" lon="7.67273">
        <ele>567.32</ele>
        <time>2014-06-07T11:11:56Z</time>
      </trkpt>
      <trkpt lat="48.08087" lon="7.67269">
        <ele>567.32</ele>
        <time>2014-06-07T11:12:32Z</time>
      </trkpt>
      <trkpt lat="48.08088" lon="7.67271">
        <ele>567.32</ele>
        <time>2014-06-07T11:13:09Z</time>
      </trkpt>
      <trkpt lat="48.0809" lon="7.67269">
        <ele>566.83</ele>
        <time>2014-06-07T11:13:43Z</time>
      </trkpt>
      <trkpt lat="48.0809" lon="7.67271">
        <ele>567.32</ele>
        <time>2014-06-07T11:14:11Z</time>
      </trkpt>
      <trkpt lat="48.08087" lon="7.67275">
        <ele>567.8</ele>
        <time>2014-06-07T11:14:39Z</time>
      </trkpt>
      <trkpt lat="48.08085" lon="7.67277">
        <ele>566.83</ele>
        <time>2014-06-07T11:15:09Z</time>
      </trkpt>
      <trkpt lat="48.08088" lon="7.67272">
        <ele>565.87</ele>
        <time>2014-06-07T11:15:38Z</time>
      </trkpt>
      <trkpt lat="48.08089" lon="7.67268">
        <ele>566.83</ele>
        <time>2014-06-07T11:16:07Z</time>
      </trkpt>
      <trkpt lat="48.08091" lon="7.67269">
        <ele>566.83</ele>
        <time>2014-06-07T11:16:41Z</time>
      </trkpt>
      <trkpt lat="48.08087" lon="7.67272">
        <ele>566.83</ele>
        <time>2014-06-07T11:17:08Z</time>
      </trkpt>
      <trkpt lat="48.08084" lon="7.6728">
        <ele>567.32</ele>
        <time>2014-06-07T11:17:37Z</time>
      </trkpt>
      <trkpt lat="48.08086" lon="7.67281">
        <ele>567.32</ele>
        <time>2014-06-07T11:18:04Z</time>
      </trkpt>
      <trkpt lat="48.08089" lon="7.67273">
        <ele>567.8</ele>
        <time>2014-06-07T11:18:20Z</time>
      </trkpt>
      <trkpt lat="48.08092" lon="7.67269">
        <ele>567.8</ele>
        <time>2014-06-07T11:18:40Z</time>
      </trkpt>
      <trkpt lat="48.08094" lon="7.67276">
        <ele>566.35</ele>
        <time>2014-06-07T11:19:00Z</time>
      </trkpt>
      <trkpt lat="48.08096" lon="7.67307">
        <ele>564.43</ele>
        <time>2014-06-07T11:19:18Z</time>
      </trkpt>
      <trkpt lat="48.08093" lon="7.67319">
        <ele>562.51</ele>
        <time>2014-06-07T11:19:32Z</time>
      </trkpt>
      <trkpt lat="48.08096" lon="7.67331">
        <ele>559.62</ele>
        <time>2014-06-07T11:19:44Z</time>
      </trkpt>
      <trkpt lat="48.08101" lon="7.67351">
        <ele>556.26</ele>
        <time>2014-06-07T11:20:01Z</time>
      </trkpt>
      <trkpt lat="48.08105" lon="7.67369">
        <ele>553.38</ele>
        <time>2014-06-07T11:20:18Z</time>
      </trkpt>
      <trkpt lat="48.08107" lon="7.6738">
        <ele>550.49</ele>
        <time>2014-06-07T11:20:30Z</time>
      </trkpt>
      <trkpt lat="48.08108" lon="7.67392">
        <ele>547.13</ele>
        <time>2014-06-07T11:20:45Z</time>
      </trkpt>
      <trkpt lat="48.08113" lon="7.67402">
        <ele>543.76</ele>
        <time>2014-06-07T11:20:56Z</time>
      </trkpt>
      <trkpt lat="48.08112" lon="7.67413">
        <ele>540.88</ele>
        <time>2014-06-07T11:21:10Z</time>
      </trkpt>
      <trkpt lat="48.08113" lon="7.67429">
        <ele>537.51</ele>
        <time>2014-06-07T11:21:24Z</time>
      </trkpt>
      <trkpt lat="48.08115" lon="7.67452">
        <ele>534.15</ele>
        <time>2014-06-07T11:21:39Z</time>
      </trkpt>
      <trkpt lat="48.08117" lon="7.67466">
        <ele>531.27</ele>
        <time>2014-06-07T11:21:50Z</time>
      </trkpt>
      <trkpt lat="48.08116" lon="7.67494">
        <ele>528.86</ele>
        <time>2014-06-07T11:22:09Z</time>
      </trkpt>
      <trkpt lat="48.08118" lon="7.67521">
        <ele>527.9</ele>
        <time>2014-06-07T11:22:27Z</time>
      </trkpt>
      <trkpt lat="48.08123" lon="7.67542">
        <ele>526.46</ele>
        <time>2014-06-07T11:22:46Z</time>
      </trkpt>
      <trkpt lat="48.08124" lon="7.67581">
        <ele>526.46</ele>
        <time>2014-06-07T11:23:06Z</time>
      </trkpt>
      <trkpt lat="48.08131" lon="7.67605">
        <ele>526.46</ele>
        <time>2014-06-07T11:23:24Z</time>
      </trkpt>
      <trkpt lat="48.08142" lon="7.67625">
        <ele>523.58</ele>
        <time>2014-06-07T11:23:41Z</time>
      </trkpt>
      <trkpt lat="48.08152" lon="7.67639">
        <ele>520.21</ele>
        <time>2014-06-07T11:23:57Z</time>
      </trkpt>
      <trkpt lat="48.08161" lon="7.67651">
        <ele>516.37</ele>
        <time>2014-06-07T11:24:14Z</time>
      </trkpt>
      <trkpt lat="48.08173" lon="7.67668">
        <ele>513.48</ele>
        <time>2014-06-07T11:24:28Z</time>
      </trkpt>
      <trkpt lat="48.08177" lon="7.67675">
        <ele>512.04</ele>
        <time>2014-06-07T11:24:35Z</time>
      </trkpt>
      <trkpt lat="48.08187" lon="7.67688">
        <ele>508.67</ele>
        <time>2014-06-07T11:24:50Z</time>
      </trkpt>
      <trkpt lat="48.08195" lon="7.67704">
        <ele>506.27</ele>
        <time>2014-06-07T11:25:05Z</time>
      </trkpt>
      <trkpt lat="48.08199" lon="7.67717">
        <ele>502.91</ele>
        <time>2014-06-07T11:25:22Z</time>
      </trkpt>
      <trkpt lat="48.082" lon="7.67729">
        <ele>499.54</ele>
        <time>2014-06-07T11:25:38Z</time>
      </trkpt>
      <trkpt lat="48.08203" lon="7.67739">
        <ele>496.18</ele>
        <time>2014-06-07T11:25:48Z</time>
      </trkpt>
      <trkpt lat="48.08206" lon="7.67757">
        <ele>492.81</ele>
        <time>2014-06-07T11:25:59Z</time>
      </trkpt>
      <trkpt lat="48.08208" lon="7.67774">
        <ele>489.93</ele>
        <time>2014-06-07T11:26:10Z</time>
      </trkpt>
      <trkpt lat="48.08211" lon="7.67789">
        <ele>485.6</ele>
        <time>2014-06-07T11:26:23Z</time>
      </trkpt>
      <trkpt lat="48.08223" lon="7.67805">
        <ele>482.72</ele>
        <time>2014-06-07T11:26:39Z</time>
      </trkpt>
      <trkpt lat="48.0823" lon="7.67823">
        <ele>479.35</ele>
        <time>2014-06-07T11:26:56Z</time>
      </trkpt>
      <trkpt lat="48.08241" lon="7.67844">
        <ele>475.99</ele>
        <time>2014-06-07T11:27:13Z</time>
      </trkpt>
      <trkpt lat="48.08246" lon="7.67875">
        <ele>474.55</ele>
        <time>2014-06-07T11:27:28Z</time>
      </trkpt>
      <trkpt lat="48.08243" lon="7.67884">
        <ele>473.59</ele>
        <time>2014-06-07T11:27:45Z</time>
      </trkpt>
      <trkpt lat="48.08249" lon="7.67892">
        <ele>473.11</ele>
        <time>2014-06-07T11:28:09Z</time>
      </trkpt>
      <trkpt lat="48.08246" lon="7.67886">
        <ele>472.14</ele>
        <time>2014-06-07T11:28:30Z</time>
      </trkpt>
      <trkpt lat="48.08237" lon="7.67891">
        <ele>471.66</ele>
        <time>2014-06-07T11:29:11Z</time>
      </trkpt>
      <trkpt lat="48.08243" lon="7.67894">
        <ele>472.63</ele>
        <time>2014-06-07T11:29:38Z</time>
      </trkpt>
      <trkpt lat="48.0824" lon="7.67888">
        <ele>472.63</ele>
        <time>2014-06-07T11:30:01Z</time>
      </trkpt>
      <trkpt lat="48.08231" lon="7.67868">
        <ele>473.59</ele>
        <time>2014-06-07T11:30:20Z</time>
      </trkpt>
      <trkpt lat="48.08213" lon="7.67847">
        <ele>475.51</ele>
        <time>2014-06-07T11:30:39Z</time>
      </trkpt>
      <trkpt lat="48.08203" lon="7.67826">
        <ele>475.99</ele>
        <time>2014-06-07T11:30:55Z</time>
      </trkpt>
      <trkpt lat="48.0819" lon="7.67806">
        <ele>475.99</ele>
        <time>2014-06-07T11:31:11Z</time>
      </trkpt>
      <trkpt lat="48.08179" lon="7.67786">
        <ele>476.47</ele>
        <time>2014-06-07T11:31:27Z</time>
      </trkpt>
      <trkpt lat="48.0817" lon="7.67771">
        <ele>477.91</ele>
        <time>2014-06-07T11:31:45Z</time>
      </trkpt>
      <trkpt lat="48.08155" lon="7.67763">
        <ele>477.91</ele>
        <time>2014-06-07T11:32:02Z</time>
      </trkpt>
      <trkpt lat="48.08134" lon="7.67746">
        <ele>477.91</ele>
        <time>2014-06-07T11:32:18Z</time>
      </trkpt>
      <trkpt lat="48.08122" lon="7.67734">
        <ele>478.87</ele>
        <time>2014-06-07T11:32:32Z</time>
      </trkpt>
      <trkpt lat="48.0811" lon="7.67719">
        <ele>480.32</ele>
        <time>2014-06-07T11:32:49Z</time>
      </trkpt>
      <trkpt lat="48.08099" lon="7.67696">
        <ele>483.2</ele>
        <time>2014-06-07T11:33:08Z</time>
      </trkpt>
      <trkpt lat="48.08085" lon="7.6768">
        <ele>485.6</ele>
        <time>2014-06-07T11:33:28Z</time>
      </trkpt>
      <trkpt lat="48.08068" lon="7.67667">
        <ele>486.56</ele>
        <time>2014-06-07T11:33:44Z</time>
      </trkpt>
      <trkpt lat="48.08061" lon="7.6765">
        <ele>486.56</ele>
        <time>2014-06-07T11:33:58Z</time>
      </trkpt>
      <trkpt lat="48.08054" lon="7.67627">
        <ele>485.6</ele>
        <time>2014-06-07T11:34:15Z</time>
      </trkpt>
      <trkpt lat="48.0805" lon="7.67593">
        <ele>483.68</ele>
        <time>2014-06-07T11:34:35Z</time>
      </trkpt>
      <trkpt lat="48.08052" lon="7.67561">
        <ele>481.76</ele>
        <time>2014-06-07T11:34:53Z</time>
      </trkpt>
      <trkpt lat="48.08048" lon="7.6753">
        <ele>480.8</ele>
        <time>2014-06-07T11:35:09Z</time>
      </trkpt>
      <trkpt lat="48.08046" lon="7.67504">
        <ele>479.84</ele>
        <time>2014-06-07T11:35:26Z</time>
      </trkpt>
      <trkpt lat="48.0803" lon="7.67471">
        <ele>478.87</ele>
        <time>2014-06-07T11:35:43Z</time>
      </trkpt>
      <trkpt lat="48.08016" lon="7.67464">
        <ele>479.35</ele>
        <time>2014-06-07T11:35:58Z</time>
      </trkpt>
      <trkpt lat="48.0799" lon="7.67449">
        <ele>479.35</ele>
        <time>2014-06-07T11:36:17Z</time>
      </trkpt>
      <trkpt lat="48.07977" lon="7.67434">
        <ele>480.32</ele>
        <time>2014-06-07T11:36:34Z</time>
      </trkpt>
      <trkpt lat="48.07974" lon="7.67415">
        <ele>482.24</ele>
        <time>2014-06-07T11:36:48Z</time>
      </trkpt>
      <trkpt lat="48.07967" lon="7.67393">
        <ele>483.68</ele>
        <time>2014-06-07T11:37:05Z</time>
      </trkpt>
      <trkpt lat="48.0796" lon="7.67375">
        <ele>484.64</ele>
        <time>2014-06-07T11:37:21Z</time>
      </trkpt>
      <trkpt lat="48.07956" lon="7.67341">
        <ele>485.6</ele>
        <time>2014-06-07T11:37:44Z</time>
      </trkpt>
      <trkpt lat="48.07951" lon="7.67327">
        <ele>486.08</ele>
        <time>2014-06-07T11:37:59Z</time>
      </trkpt>
      <trkpt lat="48.0795" lon="7.67304">
        <ele>487.05</ele>
        <time>2014-06-07T11:38:16Z</time>
      </trkpt>
      <trkpt lat="48.07948" lon="7.67282">
        <ele>488.49</ele>
        <time>2014-06-07T11:38:35Z</time>
      </trkpt>
      <trkpt lat="48.07955" lon="7.67257">
        <ele>488.97</ele>
        <time>2014-06-07T11:38:56Z</time>
      </trkpt>
      <trkpt lat="48.07957" lon="7.67242">
        <ele>488.01</ele>
        <time>2014-06-07T11:39:13Z</time>
      </trkpt>
      <trkpt lat="48.0796" lon="7.67221">
        <ele>485.12</ele>
        <time>2014-06-07T11:39:30Z</time>
      </trkpt>
      <trkpt lat="48.07962" lon="7.67189">
        <ele>483.68</ele>
        <time>2014-06-07T11:39:52Z</time>
      </trkpt>
      <trkpt lat="48.07959" lon="7.67166">
        <ele>481.76</ele>
        <time>2014-06-07T11:40:10Z</time>
      </trkpt>
      <trkpt lat="48.07953" lon="7.67149">
        <ele>478.39</ele>
        <time>2014-06-07T11:40:28Z</time>
      </trkpt>
      <trkpt lat="48.07951" lon="7.67127">
        <ele>478.87</ele>
        <time>2014-06-07T11:40:48Z</time>
      </trkpt>
      <trkpt lat="48.07944" lon="7.67134">
        <ele>479.35</ele>
        <time>2014-06-07T11:41:18Z</time>
      </trkpt>
      <trkpt lat="48.07945" lon="7.67115">
        <ele>478.87</ele>
        <time>2014-06-07T11:41:38Z</time>
      </trkpt>
      <trkpt lat="48.07937" lon="7.67096">
        <ele>477.91</ele>
        <time>2014-06-07T11:41:57Z</time>
      </trkpt>
      <trkpt lat="48.07925" lon="7.67082">
        <ele>477.91</ele>
        <time>2014-06-07T11:42:14Z</time>
      </trkpt>
      <trkpt lat="48.07911" lon="7.67072">
        <ele>477.91</ele>
        <time>2014-06-07T11:42:31Z</time>
      </trkpt>
      <trkpt lat="48.07898" lon="7.67062">
        <ele>478.87</ele>
        <time>2014-06-07T11:42:49Z</time>
      </trkpt>
      <trkpt lat="48.07888" lon="7.67054">
        <ele>479.35</ele>
        <time>2014-06-07T11:43:02Z</time>
      </trkpt>
      <trkpt lat="48.07875" lon="7.67046">
        <ele>481.76</ele>
        <time>2014-06-07T11:43:19Z</time>
      </trkpt>
      <trkpt lat="48.07854" lon="7.67037">
        <ele>481.76</ele>
        <time>2014-06-07T11:43:36Z</time>
      </trkpt>
      <trkpt lat="48.0784" lon="7.67024">
        <ele>482.72</ele>
        <time>2014-06-07T11:43:55Z</time>
      </trkpt>
      <trkpt lat="48.07837" lon="7.67009">
        <ele>483.2</ele>
        <time>2014-06-07T11:44:10Z</time>
      </trkpt>
      <trkpt lat="48.07828" lon="7.66992">
        <ele>484.64</ele>
        <time>2014-06-07T11:44:28Z</time>
      </trkpt>
      <trkpt lat="48.07825" lon="7.66976">
        <ele>485.6</ele>
        <time>2014-06-07T11:44:41Z</time>
      </trkpt>
      <trkpt lat="48.07819" lon="7.66954">
        <ele>486.08</ele>
        <time>2014-06-07T11:44:58Z</time>
      </trkpt>
      <trkpt lat="48.07812" lon="7.66931">
        <ele>486.56</ele>
        <time>2014-06-07T11:45:14Z</time>
      </trkpt>
      <trkpt lat="48.07808" lon="7.66914">
        <ele>486.56</ele>
        <time>2014-06-07T11:45:32Z</time>
      </trkpt>
      <trkpt lat="48.07803" lon="7.66873">
        <ele>488.49</ele>
        <time>2014-06-07T11:45:53Z</time>
      </trkpt>
      <trkpt lat="48.07799" lon="7.66847">
        <ele>489.93</ele>
        <time>2014-06-07T11:46:13Z</time>
      </trkpt>
      <trkpt lat="48.07797" lon="7.66834">
        <ele>489.93</ele>
        <time>2014-06-07T11:46:44Z</time>
      </trkpt>
      <trkpt lat="48.07797" lon="7.6684">
        <ele>489.93</ele>
        <time>2014-06-07T11:47:10Z</time>
      </trkpt>
      <trkpt lat="48.07788" lon="7.6684">
        <ele>490.41</ele>
        <time>2014-06-07T11:47:40Z</time>
      </trkpt>
      <trkpt lat="48.07792" lon="7.66852">
        <ele>490.41</ele>
        <time>2014-06-07T11:48:06Z</time>
      </trkpt>
      <trkpt lat="48.07795" lon="7.6684">
        <ele>490.89</ele>
        <time>2014-06-07T11:48:38Z</time>
      </trkpt>
      <trkpt lat="48.07794" lon="7.66831">
        <ele>490.89</ele>
        <time>2014-06-07T11:49:02Z</time>
      </trkpt>
      <trkpt lat="48.07793" lon="7.66823">
        <ele>491.37</ele>
        <time>2014-06-07T11:49:26Z</time>
      </trkpt>
      <trkpt lat="48.07796" lon="7.66828">
        <ele>489.93</ele>
        <time>2014-06-07T11:49:48Z</time>
      </trkpt>
      <trkpt lat="48.07806" lon="7.66829">
        <ele>488.49</ele>
        <time>2014-06-07T11:50:05Z</time>
      </trkpt>
      <trkpt lat="48.07818" lon="7.66814">
        <ele>485.12</ele>
        <time>2014-06-07T11:50:19Z</time>
      </trkpt>
      <trkpt lat="48.07826" lon="7.66808">
        <ele>481.76</ele>
        <time>2014-06-07T11:50:36Z</time>
      </trkpt>
      <trkpt lat="48.07833" lon="7.66795">
        <ele>478.39</ele>
        <time>2014-06-07T11:50:51Z</time>
      </trkpt>
      <trkpt lat="48.07834" lon="7.6677">
        <ele>475.51</ele>
        <time>2014-06-07T11:51:08Z</time>
      </trkpt>
      <trkpt lat="48.07821" lon="7.66743">
        <ele>472.14</ele>
        <time>2014-06-07T11:51:28Z</time>
      </trkpt>
      <trkpt lat="48.07814" lon="7.66714">
        <ele>469.74</ele>
        <time>2014-06-07T11:51:46Z</time>
      </trkpt>
      <trkpt lat="48.07809" lon="7.66695">
        <ele>466.86</ele>
        <time>2014-06-07T11:52:00Z</time>
      </trkpt>
      <trkpt lat="48.07801" lon="7.66674">
        <ele>463.97</ele>
        <time>2014-06-07T11:52:18Z</time>
      </trkpt>
      <trkpt lat="48.07789" lon="7.66648">
        <ele>461.57</ele>
        <time>2014-06-07T11:52:39Z</time>
      </trkpt>
      <trkpt lat="48.07774" lon="7.66627">
        <ele>459.65</ele>
        <time>2014-06-07T11:52:57Z</time>
      </trkpt>
      <trkpt lat="48.07771" lon="7.66609">
        <ele>456.76</ele>
        <time>2014-06-07T11:53:12Z</time>
      </trkpt>
      <trkpt lat="48.07768" lon="7.66582">
        <ele>453.4</ele>
        <time>2014-06-07T11:53:31Z</time>
      </trkpt>
      <trkpt lat="48.07761" lon="7.66553">
        <ele>450.52</ele>
        <time>2014-06-07T11:53:48Z</time>
      </trkpt>
      <trkpt lat="48.07761" lon="7.66534">
        <ele>448.11</ele>
        <time>2014-06-07T11:54:07Z</time>
      </trkpt>
      <trkpt lat="48.07753" lon="7.66498">
        <ele>445.23</ele>
        <time>2014-06-07T11:54:30Z</time>
      </trkpt>
      <trkpt lat="48.07743" lon="7.66468">
        <ele>443.79</ele>
        <time>2014-06-07T11:54:49Z</time>
      </trkpt>
      <trkpt lat="48.07739" lon="7.66448">
        <ele>441.86</ele>
        <time>2014-06-07T11:55:05Z</time>
      </trkpt>
      <trkpt lat="48.07741" lon="7.66427">
        <ele>439.46</ele>
        <time>2014-06-07T11:55:25Z</time>
      </trkpt>
      <trkpt lat="48.07739" lon="7.66409">
        <ele>437.06</ele>
        <time>2014-06-07T11:55:42Z</time>
      </trkpt>
      <trkpt lat="48.07734" lon="7.66372">
        <ele>434.17</ele>
        <time>2014-06-07T11:56:03Z</time>
      </trkpt>
      <trkpt lat="48.07737" lon="7.66341">
        <ele>431.77</ele>
        <time>2014-06-07T11:56:25Z</time>
      </trkpt>
      <trkpt lat="48.07738" lon="7.66318">
        <ele>429.85</ele>
        <time>2014-06-07T11:56:43Z</time>
      </trkpt>
      <trkpt lat="48.07736" lon="7.66287">
        <ele>427.44</ele>
        <time>2014-06-07T11:57:03Z</time>
      </trkpt>
      <trkpt lat="48.07736" lon="7.6626">
        <ele>425.52</ele>
        <time>2014-06-07T11:57:22Z</time>
      </trkpt>
      <trkpt lat="48.07736" lon="7.6625">
        <ele>424.56</ele>
        <time>2014-06-07T11:57:40Z</time>
      </trkpt>
      <trkpt lat="48.07732" lon="7.66265">
        <ele>424.08</ele>
        <time>2014-06-07T11:58:19Z</time>
      </trkpt>
      <trkpt lat="48.07728" lon="7.66259">
        <ele>424.08</ele>
        <time>2014-06-07T11:58:50Z</time>
      </trkpt>
      <trkpt lat="48.07729" lon="7.66228">
        <ele>422.64</ele>
        <time>2014-06-07T11:59:14Z</time>
      </trkpt>
      <trkpt lat="48.0773" lon="7.66204">
        <ele>419.75</ele>
        <time>2014-06-07T11:59:32Z</time>
      </trkpt>
      <trkpt lat="48.07732" lon="7.66175">
        <ele>416.39</ele>
        <time>2014-06-07T11:59:52Z</time>
      </trkpt>
      <trkpt lat="48.07734" lon="7.66157">
        <ele>413.5</ele>
        <time>2014-06-07T12:00:08Z</time>
      </trkpt>
      <trkpt lat="48.07735" lon="7.66128">
        <ele>411.58</ele>
        <time>2014-06-07T12:00:26Z</time>
      </trkpt>
      <trkpt lat="48.07732" lon="7.66102">
        <ele>410.14</ele>
        <time>2014-06-07T12:00:44Z</time>
      </trkpt>
      <trkpt lat="48.0773" lon="7.66089">
        <ele>409.18</ele>
        <time>2014-06-07T12:01:01Z</time>
      </trkpt>
      <trkpt lat="48.07723" lon="7.66079">
        <ele>408.7</ele>
        <time>2014-06-07T12:01:21Z</time>
      </trkpt>
      <trkpt lat="48.07721" lon="7.66083">
        <ele>408.22</ele>
        <time>2014-06-07T12:01:35Z</time>
      </trkpt>
      <trkpt lat="48.07721" lon="7.66085">
        <ele>407.74</ele>
        <time>2014-06-07T12:02:02Z</time>
      </trkpt>
      <trkpt lat="48.07715" lon="7.66092">
        <ele>408.22</ele>
        <time>2014-06-07T12:02:15Z</time>
      </trkpt>
      <trkpt lat="48.0771" lon="7.66094">
        <ele>407.26</ele>
        <time>2014-06-07T12:02:29Z</time>
      </trkpt>
      <trkpt lat="48.07707" lon="7.66099">
        <ele>407.74</ele>
        <time>2014-06-07T12:02:51Z</time>
      </trkpt>
      <trkpt lat="48.07698" lon="7.66121">
        <ele>407.74</ele>
        <time>2014-06-07T12:03:08Z</time>
      </trkpt>
      <trkpt lat="48.07675" lon="7.6614">
        <ele>406.29</ele>
        <time>2014-06-07T12:03:27Z</time>
      </trkpt>
      <trkpt lat="48.07661" lon="7.66151">
        <ele>405.33</ele>
        <time>2014-06-07T12:03:45Z</time>
      </trkpt>
      <trkpt lat="48.07644" lon="7.66168">
        <ele>405.81</ele>
        <time>2014-06-07T12:04:09Z</time>
      </trkpt>
      <trkpt lat="48.07641" lon="7.6616">
        <ele>404.85</ele>
        <time>2014-06-07T12:04:35Z</time>
      </trkpt>
      <trkpt lat="48.07657" lon="7.66141">
        <ele>402.45</ele>
        <time>2014-06-07T12:04:53Z</time>
      </trkpt>
      <trkpt lat="48.0765" lon="7.66115">
        <ele>399.08</ele>
        <time>2014-06-07T12:05:07Z</time>
      </trkpt>
      <trkpt lat="48.07648" lon="7.661">
        <ele>395.72</ele>
        <time>2014-06-07T12:05:24Z</time>
      </trkpt>
      <trkpt lat="48.07644" lon="7.66086">
        <ele>394.28</ele>
        <time>2014-06-07T12:05:44Z</time>
      </trkpt>
      <trkpt lat="48.0764" lon="7.66065">
        <ele>391.87</ele>
        <time>2014-06-07T12:05:59Z</time>
      </trkpt>
      <trkpt lat="48.07634" lon="7.66053">
        <ele>388.99</ele>
        <time>2014-06-07T12:06:11Z</time>
      </trkpt>
      <trkpt lat="48.07633" lon="7.66037">
        <ele>385.63</ele>
        <time>2014-06-07T12:06:25Z</time>
      </trkpt>
      <trkpt lat="48.07637" lon="7.66024">
        <ele>383.22</ele>
        <time>2014-06-07T12:06:44Z</time>
      </trkpt>
      <trkpt lat="48.07634" lon="7.66022">
        <ele>383.22</ele>
        <time>2014-06-07T12:07:08Z</time>
      </trkpt>
      <trkpt lat="48.07634" lon="7.6602">
        <ele>383.22</ele>
        <time>2014-06-07T12:07:29Z</time>
      </trkpt>
      <trkpt lat="48.07633" lon="7.66019">
        <ele>382.74</ele>
        <time>2014-06-07T12:07:36Z</time>
      </trkpt>
      <trkpt lat="48.07625" lon="7.66007">
        <ele>381.78</ele>
        <time>2014-06-07T12:07:52Z</time>
      </trkpt>
      <trkpt lat="48.07617" lon="7.65993">
        <ele>379.38</ele>
        <time>2014-06-07T12:08:07Z</time>
      </trkpt>
      <trkpt lat="48.07608" lon="7.65973">
        <ele>376.49</ele>
        <time>2014-06-07T12:08:24Z</time>
      </trkpt>
      <trkpt lat="48.07606" lon="7.65963">
        <ele>375.53</ele>
        <time>2014-06-07T12:08:35Z</time>
      </trkpt>
      <trkpt lat="48.07606" lon="7.65959">
        <ele>374.09</ele>
        <time>2014-06-07T12:08:39Z</time>
      </trkpt>
      <trkpt lat="48.07607" lon="7.65936">
        <ele>370.73</ele>
        <time>2014-06-07T12:08:56Z</time>
      </trkpt>
      <trkpt lat="48.07609" lon="7.65916">
        <ele>367.84</ele>
        <time>2014-06-07T12:09:12Z</time>
      </trkpt>
      <trkpt lat="48.07614" lon="7.65896">
        <ele>364.96</ele>
        <time>2014-06-07T12:09:27Z</time>
      </trkpt>
      <trkpt lat="48.07617" lon="7.65876">
        <ele>361.59</ele>
        <time>2014-06-07T12:09:42Z</time>
      </trkpt>
      <trkpt lat="48.07618" lon="7.65864">
        <ele>360.15</ele>
        <time>2014-06-07T12:09:54Z</time>
      </trkpt>
      <trkpt lat="48.07618" lon="7.65845">
        <ele>357.27</ele>
        <time>2014-06-07T12:10:07Z</time>
      </trkpt>
      <trkpt lat="48.07616" lon="7.65821">
        <ele>354.86</ele>
        <time>2014-06-07T12:10:27Z</time>
      </trkpt>
      <trkpt lat="48.07612" lon="7.65796">
        <ele>352.46</ele>
        <time>2014-06-07T12:10:45Z</time>
      </trkpt>
      <trkpt lat="48.0761" lon="7.65783">
        <ele>351.02</ele>
        <time>2014-06-07T12:10:54Z</time>
      </trkpt>
      <trkpt lat="48.07605" lon="7.65753">
        <ele>347.17</ele>
        <time>2014-06-07T12:11:15Z</time>
      </trkpt>
      <trkpt lat="48.07604" lon="7.65752">
        <ele>347.17</ele>
        <time>2014-06-07T12:11:16Z</time>
      </trkpt>
      <trkpt lat="48.07598" lon="7.65732">
        <ele>345.25</ele>
        <time>2014-06-07T12:11:30Z</time>
      </trkpt>
      <trkpt lat="48.07589" lon="7.65705">
        <ele>342.85</ele>
        <time>2014-06-07T12:11:49Z</time>
      </trkpt>
      <trkpt lat="48.07583" lon="7.6569">
        <ele>339.96</ele>
        <time>2014-06-07T12:12:01Z</time>
      </trkpt>
      <trkpt lat="48.07575" lon="7.65662">
        <ele>337.08</ele>
        <time>2014-06-07T12:12:20Z</time>
      </trkpt>
      <trkpt lat="48.07573" lon="7.65658">
        <ele>336.6</ele>
        <time>2014-06-07T12:12:24Z</time>
      </trkpt>
      <trkpt lat="48.07565" lon="7.65648">
        <ele>335.16</ele>
        <time>2014-06-07T12:12:41Z</time>
      </trkpt>
      <trkpt lat="48.07562" lon="7.65646">
        <ele>334.68</ele>
        <time>2014-06-07T12:13:03Z</time>
      </trkpt>
      <trkpt lat="48.07563" lon="7.65642">
        <ele>334.2</ele>
        <time>2014-06-07T12:13:06Z</time>
      </trkpt>
      <trkpt lat="48.07557" lon="7.65631">
        <ele>332.27</ele>
        <time>2014-06-07T12:13:24Z</time>
      </trkpt>
      <trkpt lat="48.07554" lon="7.65604">
        <ele>329.39</ele>
        <time>2014-06-07T12:13:42Z</time>
      </trkpt>
      <trkpt lat="48.07554" lon="7.65579">
        <ele>326.5</ele>
        <time>2014-06-07T12:13:59Z</time>
      </trkpt>
      <trkpt lat="48.07559" lon="7.65553">
        <ele>323.62</ele>
        <time>2014-06-07T12:14:18Z</time>
      </trkpt>
      <trkpt lat="48.07561" lon="7.65548">
        <ele>323.14</ele>
        <time>2014-06-07T12:14:22Z</time>
      </trkpt>
      <trkpt lat="48.07563" lon="7.65534">
        <ele>322.18</ele>
        <time>2014-06-07T12:14:35Z</time>
      </trkpt>
      <trkpt lat="48.07576" lon="7.65513">
        <ele>320.74</ele>
        <time>2014-06-07T12:14:52Z</time>
      </trkpt>
      <trkpt lat="48.07589" lon="7.65488">
        <ele>319.3</ele>
        <time>2014-06-07T12:15:11Z</time>
      </trkpt>
      <trkpt lat="48.07604" lon="7.65462">
        <ele>316.89</ele>
        <time>2014-06-07T12:15:30Z</time>
      </trkpt>
      <trkpt lat="48.0761" lon="7.65443">
        <ele>316.41</ele>
        <time>2014-06-07T12:15:46Z</time>
      </trkpt>
      <trkpt lat="48.07594" lon="7.65424">
        <ele>315.45</ele>
        <time>2014-06-07T12:16:05Z</time>
      </trkpt>
      <trkpt lat="48.07578" lon="7.65433">
        <ele>315.45</ele>
        <time>2014-06-07T12:16:21Z</time>
      </trkpt>
      <trkpt lat="48.07566" lon="7.65453">
        <ele>316.41</ele>
        <time>2014-06-07T12:16:39Z</time>
      </trkpt>
      <trkpt lat="48.0756" lon="7.65466">
        <ele>316.89</ele>
        <time>2014-06-07T12:16:51Z</time>
      </trkpt>
      <trkpt lat="48.07548" lon="7.65488">
        <ele>317.85</ele>
        <time>2014-06-07T12:17:10Z</time>
      </trkpt>
      <trkpt lat="48.07536" lon="7.65502">
        <ele>318.81</ele>
        <time>2014-06-07T12:17:26Z</time>
      </trkpt>
      <trkpt lat="48.07523" lon="7.65498">
        <ele>321.22</ele>
        <time>2014-06-07T12:17:43Z</time>
      </trkpt>
      <trkpt lat="48.07512" lon="7.65485">
        <ele>322.66</ele>
        <time>2014-06-07T12:17:59Z</time>
      </trkpt>
      <trkpt lat="48.07497" lon="7.65473">
        <ele>324.1</ele>
        <time>2014-06-07T12:18:16Z</time>
      </trkpt>
      <trkpt lat="48.07486" lon="7.65466">
        <ele>325.54</ele>
        <time>2014-06-07T12:18:31Z</time>
      </trkpt>
      <trkpt lat="48.07477" lon="7.65459">
        <ele>326.99</ele>
        <time>2014-06-07T12:18:48Z</time>
      </trkpt>
      <trkpt lat="48.07472" lon="7.65463">
        <ele>327.47</ele>
        <time>2014-06-07T12:18:53Z</time>
      </trkpt>
      <trkpt lat="48.07459" lon="7.65489">
        <ele>327.95</ele>
        <time>2014-06-07T12:19:10Z</time>
      </trkpt>
      <trkpt lat="48.07456" lon="7.65492">
        <ele>328.43</ele>
        <time>2014-06-07T12:19:26Z</time>
      </trkpt>
      <trkpt lat="48.07456" lon="7.65479">
        <ele>331.31</ele>
        <time>2014-06-07T12:19:41Z</time>
      </trkpt>
      <trkpt lat="48.07454" lon="7.6548">
        <ele>334.2</ele>
        <time>2014-06-07T12:19:57Z</time>
      </trkpt>
      <trkpt lat="48.07448" lon="7.6549">
        <ele>337.08</ele>
        <time>2014-06-07T12:20:14Z</time>
      </trkpt>
      <trkpt lat="48.07437" lon="7.65501">
        <ele>339.96</ele>
        <time>2014-06-07T12:20:32Z</time>
      </trkpt>
      <trkpt lat="48.07435" lon="7.65515">
        <ele>340.92</ele>
        <time>2014-06-07T12:20:44Z</time>
      </trkpt>
      <trkpt lat="48.07428" lon="7.65535">
        <ele>340.92</ele>
        <time>2014-06-07T12:21:00Z</time>
      </trkpt>
      <trkpt lat="48.07414" lon="7.65563">
        <ele>341.41</ele>
        <time>2014-06-07T12:21:14Z</time>
      </trkpt>
      <trkpt lat="48.07406" lon="7.65562">
        <ele>341.89</ele>
        <time>2014-06-07T12:21:31Z</time>
      </trkpt>
      <trkpt lat="48.07399" lon="7.65561">
        <ele>341.89</ele>
        <time>2014-06-07T12:21:47Z</time>
      </trkpt>
      <trkpt lat="48.07405" lon="7.65563">
        <ele>341.89</ele>
        <time>2014-06-07T12:22:14Z</time>
      </trkpt>
      <trkpt lat="48.07409" lon="7.65562">
        <ele>341.41</ele>
        <time>2014-06-07T12:22:48Z</time>
      </trkpt>
      <trkpt lat="48.07408" lon="7.6556">
        <ele>341.41</ele>
        <time>2014-06-07T12:23:23Z</time>
      </trkpt>
      <trkpt lat="48.07414" lon="7.65554">
        <ele>341.41</ele>
        <time>2014-06-07T12:23:56Z</time>
      </trkpt>
      <trkpt lat="48.07404" lon="7.65562">
        <ele>341.89</ele>
        <time>2014-06-07T12:24:26Z</time>
      </trkpt>
      <trkpt lat="48.07413" lon="7.65562">
        <ele>341.41</ele>
        <time>2014-06-07T12:24:59Z</time>
      </trkpt>
      <trkpt lat="48.07406" lon="7.65561">
        <ele>341.89</ele>
        <time>2014-06-07T12:25:28Z</time>
      </trkpt>
      <trkpt lat="48.07415" lon="7.65556">
        <ele>341.41</ele>
        <time>2014-06-07T12:25:53Z</time>
      </trkpt>
      <trkpt lat="48.07409" lon="7.65559">
        <ele>340.92</ele>
        <time>2014-06-07T12:26:18Z</time>
      </trkpt>
      <trkpt lat="48.07412" lon="7.65562">
        <ele>341.41</ele>
        <time>2014-06-07T12:26:52Z</time>
      </trkpt>
      <trkpt lat="48.074" lon="7.65549">
        <ele>340.92</ele>
        <time>2014-06-07T12:27:14Z</time>
      </trkpt>
      <trkpt lat="48.07388" lon="7.65542">
        <ele>342.37</ele>
        <time>2014-06-07T12:27:29Z</time>
      </trkpt>
      <trkpt lat="48.07383" lon="7.65539">
        <ele>342.37</ele>
        <time>2014-06-07T12:27:36Z</time>
      </trkpt>
      <trkpt lat="48.07369" lon="7.6553">
        <ele>344.29</ele>
        <time>2014-06-07T12:27:52Z</time>
      </trkpt>
      <trkpt lat="48.07356" lon="7.65513">
        <ele>344.77</ele>
        <time>2014-06-07T12:28:08Z</time>
      </trkpt>
      <trkpt lat="48.07349" lon="7.65496">
        <ele>347.17</ele>
        <time>2014-06-07T12:28:21Z</time>
      </trkpt>
      <trkpt lat="48.07342" lon="7.65485">
        <ele>348.62</ele>
        <time>2014-06-07T12:28:35Z</time>
      </trkpt>
      <trkpt lat="48.07337" lon="7.65476">
        <ele>349.58</ele>
        <time>2014-06-07T12:28:48Z</time>
      </trkpt>
      <trkpt lat="48.07327" lon="7.65461">
        <ele>351.98</ele>
        <time>2014-06-07T12:29:05Z</time>
      </trkpt>
      <trkpt lat="48.07321" lon="7.65444">
        <ele>351.98</ele>
        <time>2014-06-07T12:29:19Z</time>
      </trkpt>
      <trkpt lat="48.0732" lon="7.65444">
        <ele>352.94</ele>
        <time>2014-06-07T12:29:20Z</time>
      </trkpt>
      <trkpt lat="48.07306" lon="7.65437">
        <ele>351.98</ele>
        <time>2014-06-07T12:29:38Z</time>
      </trkpt>
      <trkpt lat="48.07314" lon="7.65432">
        <ele>352.46</ele>
        <time>2014-06-07T12:29:51Z</time>
      </trkpt>
      <trkpt lat="48.07313" lon="7.65418">
        <ele>351.5</ele>
        <time>2014-06-07T12:30:02Z</time>
      </trkpt>
      <trkpt lat="48.07318" lon="7.65398">
        <ele>351.5</ele>
        <time>2014-06-07T12:30:17Z</time>
      </trkpt>
      <trkpt lat="48.07327" lon="7.65375">
        <ele>350.06</ele>
        <time>2014-06-07T12:30:37Z</time>
      </trkpt>
      <trkpt lat="48.07337" lon="7.6537">
        <ele>349.58</ele>
        <time>2014-06-07T12:30:53Z</time>
      </trkpt>
      <trkpt lat="48.07337" lon="7.65365">
        <ele>348.62</ele>
        <time>2014-06-07T12:31:11Z</time>
      </trkpt>
      <trkpt lat="48.07339" lon="7.65369">
        <ele>348.62</ele>
        <time>2014-06-07T12:31:36Z</time>
      </trkpt>
      <trkpt lat="48.07341" lon="7.65366">
        <ele>349.58</ele>
        <time>2014-06-07T12:31:48Z</time>
      </trkpt>
      <trkpt lat="48.07337" lon="7.65369">
        <ele>349.1</ele>
        <time>2014-06-07T12:32:12Z</time>
      </trkpt>
      <trkpt lat="48.07325" lon="7.65356">
        <ele>351.5</ele>
        <time>2014-06-07T12:32:33Z</time>
      </trkpt>
      <trkpt lat="48.07312" lon="7.65346">
        <ele>353.9</ele>
        <time>2014-06-07T12:32:53Z</time>
      </trkpt>
      <trkpt lat="48.07305" lon="7.65335">
        <ele>354.86</ele>
        <time>2014-06-07T12:33:15Z</time>
      </trkpt>
      <trkpt lat="48.0731" lon="7.65323">
        <ele>356.79</ele>
        <time>2014-06-07T12:33:35Z</time>
      </trkpt>
      <trkpt lat="48.07307" lon="7.65311">
        <ele>359.67</ele>
        <time>2014-06-07T12:33:44Z</time>
      </trkpt>
      <trkpt lat="48.07308" lon="7.65305">
        <ele>360.15</ele>
        <time>2014-06-07T12:33:49Z</time>
      </trkpt>
      <trkpt lat="48.07302" lon="7.6529">
        <ele>362.55</ele>
        <time>2014-06-07T12:34:08Z</time>
      </trkpt>
      <trkpt lat="48.07295" lon="7.65284">
        <ele>363.04</ele>
        <time>2014-06-07T12:34:26Z</time>
      </trkpt>
      <trkpt lat="48.07283" lon="7.65274">
        <ele>364</ele>
        <time>2014-06-07T12:34:45Z</time>
      </trkpt>
      <trkpt lat="48.07274" lon="7.65267">
        <ele>363.52</ele>
        <time>2014-06-07T12:34:54Z</time>
      </trkpt>
      <trkpt lat="48.07262" lon="7.65253">
        <ele>364.48</ele>
        <time>2014-06-07T12:35:07Z</time>
      </trkpt>
      <trkpt lat="48.07259" lon="7.6525">
        <ele>364.96</ele>
        <time>2014-06-07T12:35:09Z</time>
      </trkpt>
      <trkpt lat="48.07252" lon="7.65234">
        <ele>364.96</ele>
        <time>2014-06-07T12:35:18Z</time>
      </trkpt>
      <trkpt lat="48.07243" lon="7.65219">
        <ele>365.44</ele>
        <time>2014-06-07T12:35:30Z</time>
      </trkpt>
      <trkpt lat="48.07236" lon="7.65199">
        <ele>365.44</ele>
        <time>2014-06-07T12:35:43Z</time>
      </trkpt>
      <trkpt lat="48.07229" lon="7.65182">
        <ele>366.4</ele>
        <time>2014-06-07T12:35:58Z</time>
      </trkpt>
      <trkpt lat="48.07223" lon="7.65166">
        <ele>366.4</ele>
        <time>2014-06-07T12:36:12Z</time>
      </trkpt>
      <trkpt lat="48.07215" lon="7.65152">
        <ele>367.84</ele>
        <time>2014-06-07T12:36:28Z</time>
      </trkpt>
      <trkpt lat="48.07207" lon="7.65135">
        <ele>368.8</ele>
        <time>2014-06-07T12:36:42Z</time>
      </trkpt>
      <trkpt lat="48.07203" lon="7.65128">
        <ele>369.28</ele>
        <time>2014-06-07T12:36:47Z</time>
      </trkpt>
      <trkpt lat="48.07198" lon="7.65106">
        <ele>369.76</ele>
        <time>2014-06-07T12:37:00Z</time>
      </trkpt>
      <trkpt lat="48.07192" lon="7.65084">
        <ele>370.73</ele>
        <time>2014-06-07T12:37:15Z</time>
      </trkpt>
      <trkpt lat="48.07186" lon="7.65069">
        <ele>372.65</ele>
        <time>2014-06-07T12:37:31Z</time>
      </trkpt>
      <trkpt lat="48.07182" lon="7.65055">
        <ele>375.05</ele>
        <time>2014-06-07T12:37:45Z</time>
      </trkpt>
      <trkpt lat="48.0718" lon="7.65049">
        <ele>375.05</ele>
        <time>2014-06-07T12:38:00Z</time>
      </trkpt>
      <trkpt lat="48.07183" lon="7.65051">
        <ele>374.57</ele>
        <time>2014-06-07T12:38:31Z</time>
      </trkpt>
      <trkpt lat="48.07188" lon="7.65047">
        <ele>375.05</ele>
        <time>2014-06-07T12:38:59Z</time>
      </trkpt>
      <trkpt lat="48.07196" lon="7.6505">
        <ele>374.09</ele>
        <time>2014-06-07T12:39:15Z</time>
      </trkpt>
      <trkpt lat="48.07199" lon="7.65047">
        <ele>375.05</ele>
        <time>2014-06-07T12:39:42Z</time>
      </trkpt>
      <trkpt lat="48.07198" lon="7.6504">
        <ele>374.09</ele>
        <time>2014-06-07T12:39:48Z</time>
      </trkpt>
      <trkpt lat="48.07208" lon="7.65019">
        <ele>373.61</ele>
        <time>2014-06-07T12:40:06Z</time>
      </trkpt>
      <trkpt lat="48.07221" lon="7.65008">
        <ele>373.13</ele>
        <time>2014-06-07T12:40:24Z</time>
      </trkpt>
      <trkpt lat="48.07238" lon="7.64989">
        <ele>372.17</ele>
        <time>2014-06-07T12:40:46Z</time>
      </trkpt>
      <trkpt lat="48.07243" lon="7.64983">
        <ele>371.69</ele>
        <time>2014-06-07T12:40:53Z</time>
      </trkpt>
      <trkpt lat="48.07251" lon="7.64956">
        <ele>370.73</ele>
        <time>2014-06-07T12:41:13Z</time>
      </trkpt>
      <trkpt lat="48.07258" lon="7.64936">
        <ele>369.28</ele>
        <time>2014-06-07T12:41:33Z</time>
      </trkpt>
      <trkpt lat="48.07259" lon="7.64932">
        <ele>368.8</ele>
        <time>2014-06-07T12:41:53Z</time>
      </trkpt>
      <trkpt lat="48.07261" lon="7.6493">
        <ele>368.8</ele>
        <time>2014-06-07T12:42:21Z</time>
      </trkpt>
      <trkpt lat="48.07261" lon="7.64919">
        <ele>367.84</ele>
        <time>2014-06-07T12:42:33Z</time>
      </trkpt>
      <trkpt lat="48.07268" lon="7.64899">
        <ele>364.96</ele>
        <time>2014-06-07T12:42:53Z</time>
      </trkpt>
      <trkpt lat="48.07273" lon="7.64877">
        <ele>364</ele>
        <time>2014-06-07T12:43:10Z</time>
      </trkpt>
      <trkpt lat="48.0727" lon="7.64854">
        <ele>363.52</ele>
        <time>2014-06-07T12:43:27Z</time>
      </trkpt>
      <trkpt lat="48.07265" lon="7.64828">
        <ele>364</ele>
        <time>2014-06-07T12:43:45Z</time>
      </trkpt>
      <trkpt lat="48.07257" lon="7.64798">
        <ele>364</ele>
        <time>2014-06-07T12:44:04Z</time>
      </trkpt>
      <trkpt lat="48.07249" lon="7.64771">
        <ele>364.96</ele>
        <time>2014-06-07T12:44:23Z</time>
      </trkpt>
      <trkpt lat="48.07242" lon="7.64747">
        <ele>365.44</ele>
        <time>2014-06-07T12:44:40Z</time>
      </trkpt>
      <trkpt lat="48.07236" lon="7.64719">
        <ele>365.44</ele>
        <time>2014-06-07T12:44:59Z</time>
      </trkpt>
      <trkpt lat="48.07232" lon="7.64691">
        <ele>364.96</ele>
        <time>2014-06-07T12:45:17Z</time>
      </trkpt>
      <trkpt lat="48.0723" lon="7.64668">
        <ele>365.44</ele>
        <time>2014-06-07T12:45:33Z</time>
      </trkpt>
      <trkpt lat="48.07234" lon="7.64661">
        <ele>365.92</ele>
        <time>2014-06-07T12:45:40Z</time>
      </trkpt>
      <trkpt lat="48.07248" lon="7.64645">
        <ele>365.92</ele>
        <time>2014-06-07T12:46:00Z</time>
      </trkpt>
      <trkpt lat="48.07267" lon="7.6463">
        <ele>365.92</ele>
        <time>2014-06-07T12:46:20Z</time>
      </trkpt>
      <trkpt lat="48.07282" lon="7.64609">
        <ele>363.52</ele>
        <time>2014-06-07T12:46:38Z</time>
      </trkpt>
      <trkpt lat="48.07293" lon="7.64581">
        <ele>362.07</ele>
        <time>2014-06-07T12:46:58Z</time>
      </trkpt>
      <trkpt lat="48.07296" lon="7.6456">
        <ele>360.15</ele>
        <time>2014-06-07T12:47:12Z</time>
      </trkpt>
      <trkpt lat="48.07301" lon="7.64528">
        <ele>358.71</ele>
        <time>2014-06-07T12:47:32Z</time>
      </trkpt>
      <trkpt lat="48.07301" lon="7.645">
        <ele>357.75</ele>
        <time>2014-06-07T12:47:49Z</time>
      </trkpt>
      <trkpt lat="48.07301" lon="7.64496">
        <ele>357.75</ele>
        <time>2014-06-07T12:47:51Z</time>
      </trkpt>
      <trkpt lat="48.073" lon="7.64465">
        <ele>357.27</ele>
        <time>2014-06-07T12:48:10Z</time>
      </trkpt>
      <trkpt lat="48.07294" lon="7.64435">
        <ele>356.79</ele>
        <time>2014-06-07T12:48:29Z</time>
      </trkpt>
      <trkpt lat="48.07287" lon="7.64412">
        <ele>356.31</ele>
        <time>2014-06-07T12:48:46Z</time>
      </trkpt>
      <trkpt lat="48.07287" lon="7.64411">
        <ele>355.34</ele>
        <time>2014-06-07T12:48:47Z</time>
      </trkpt>
      <trkpt lat="48.07295" lon="7.64388">
        <ele>354.86</ele>
        <time>2014-06-07T12:49:03Z</time>
      </trkpt>
      <trkpt lat="48.07307" lon="7.6437">
        <ele>353.42</ele>
        <time>2014-06-07T12:49:20Z</time>
      </trkpt>
      <trkpt lat="48.07323" lon="7.64355">
        <ele>353.9</ele>
        <time>2014-06-07T12:49:37Z</time>
      </trkpt>
      <trkpt lat="48.07341" lon="7.64347">
        <ele>354.86</ele>
        <time>2014-06-07T12:49:55Z</time>
      </trkpt>
      <trkpt lat="48.07362" lon="7.64335">
        <ele>354.86</ele>
        <time>2014-06-07T12:50:15Z</time>
      </trkpt>
      <trkpt lat="48.07363" lon="7.64335">
        <ele>354.86</ele>
        <time>2014-06-07T12:50:16Z</time>
      </trkpt>
      <trkpt lat="48.0737" lon="7.64312">
        <ele>353.9</ele>
        <time>2014-06-07T12:50:33Z</time>
      </trkpt>
      <trkpt lat="48.07372" lon="7.64285">
        <ele>352.46</ele>
        <time>2014-06-07T12:50:49Z</time>
      </trkpt>
      <trkpt lat="48.07372" lon="7.64282">
        <ele>352.94</ele>
        <time>2014-06-07T12:50:51Z</time>
      </trkpt>
      <trkpt lat="48.07365" lon="7.64252">
        <ele>352.94</ele>
        <time>2014-06-07T12:51:06Z</time>
      </trkpt>
      <trkpt lat="48.07375" lon="7.64234">
        <ele>351.98</ele>
        <time>2014-06-07T12:51:23Z</time>
      </trkpt>
      <trkpt lat="48.07384" lon="7.6422">
        <ele>351.02</ele>
        <time>2014-06-07T12:51:36Z</time>
      </trkpt>
      <trkpt lat="48.074" lon="7.64207">
        <ele>351.02</ele>
        <time>2014-06-07T12:51:55Z</time>
      </trkpt>
      <trkpt lat="48.07416" lon="7.64205">
        <ele>350.54</ele>
        <time>2014-06-07T12:52:13Z</time>
      </trkpt>
      <trkpt lat="48.07433" lon="7.64204">
        <ele>351.02</ele>
        <time>2014-06-07T12:52:31Z</time>
      </trkpt>
      <trkpt lat="48.07456" lon="7.64203">
        <ele>350.54</ele>
        <time>2014-06-07T12:52:48Z</time>
      </trkpt>
      <trkpt lat="48.07468" lon="7.64201">
        <ele>349.58</ele>
        <time>2014-06-07T12:53:05Z</time>
      </trkpt>
      <trkpt lat="48.07468" lon="7.64202">
        <ele>348.62</ele>
        <time>2014-06-07T12:53:24Z</time>
      </trkpt>
      <trkpt lat="48.07467" lon="7.64203">
        <ele>348.13</ele>
        <time>2014-06-07T12:53:57Z</time>
      </trkpt>
      <trkpt lat="48.07468" lon="7.64206">
        <ele>348.62</ele>
        <time>2014-06-07T12:54:20Z</time>
      </trkpt>
      <trkpt lat="48.0747" lon="7.64209">
        <ele>348.62</ele>
        <time>2014-06-07T12:54:50Z</time>
      </trkpt>
      <trkpt lat="48.0747" lon="7.64199">
        <ele>348.62</ele>
        <time>2014-06-07T12:55:10Z</time>
      </trkpt>
      <trkpt lat="48.07475" lon="7.642">
        <ele>348.13</ele>
        <time>2014-06-07T12:55:34Z</time>
      </trkpt>
      <trkpt lat="48.07495" lon="7.64199">
        <ele>345.73</ele>
        <time>2014-06-07T12:55:54Z</time>
      </trkpt>
      <trkpt lat="48.07509" lon="7.64195">
        <ele>342.85</ele>
        <time>2014-06-07T12:56:09Z</time>
      </trkpt>
      <trkpt lat="48.07511" lon="7.6418">
        <ele>342.85</ele>
        <time>2014-06-07T12:56:26Z</time>
      </trkpt>
      <trkpt lat="48.07513" lon="7.64178">
        <ele>343.33</ele>
        <time>2014-06-07T12:56:45Z</time>
      </trkpt>
      <trkpt lat="48.07513" lon="7.64178">
        <ele>342.37</ele>
        <time>2014-06-07T12:57:15Z</time>
      </trkpt>
      <trkpt lat="48.07513" lon="7.6418">
        <ele>343.33</ele>
        <time>2014-06-07T12:57:29Z</time>
      </trkpt>
      <trkpt lat="48.07512" lon="7.6418">
        <ele>343.33</ele>
        <time>2014-06-07T12:57:59Z</time>
      </trkpt>
      <trkpt lat="48.07512" lon="7.64182">
        <ele>342.85</ele>
        <time>2014-06-07T12:58:13Z</time>
      </trkpt>
      <trkpt lat="48.07513" lon="7.64181">
        <ele>342.37</ele>
        <time>2014-06-07T12:58:42Z</time>
      </trkpt>
      <trkpt lat="48.07515" lon="7.64184">
        <ele>342.85</ele>
        <time>2014-06-07T12:59:13Z</time>
      </trkpt>
      <trkpt lat="48.07512" lon="7.64183">
        <ele>342.85</ele>
        <time>2014-06-07T12:59:46Z</time>
      </trkpt>
      <trkpt lat="48.0751" lon="7.64184">
        <ele>342.37</ele>
        <time>2014-06-07T13:00:13Z</time>
      </trkpt>
      <trkpt lat="48.07507" lon="7.64184">
        <ele>342.37</ele>
        <time>2014-06-07T13:00:44Z</time>
      </trkpt>
      <trkpt lat="48.07509" lon="7.64185">
        <ele>342.85</ele>
        <time>2014-06-07T13:01:13Z</time>
      </trkpt>
      <trkpt lat="48.07507" lon="7.64189">
        <ele>342.85</ele>
        <time>2014-06-07T13:01:46Z</time>
      </trkpt>
      <trkpt lat="48.07506" lon="7.64187">
        <ele>342.85</ele>
        <time>2014-06-07T13:02:17Z</time>
      </trkpt>
      <trkpt lat="48.0751" lon="7.64184">
        <ele>342.37</ele>
        <time>2014-06-07T13:02:50Z</time>
      </trkpt>
      <trkpt lat="48.07506" lon="7.64186">
        <ele>342.37</ele>
        <time>2014-06-07T13:03:19Z</time>
      </trkpt>
      <trkpt lat="48.07509" lon="7.64187">
        <ele>342.85</ele>
        <time>2014-06-07T13:03:51Z</time>
      </trkpt>
      <trkpt lat="48.07503" lon="7.64192">
        <ele>342.85</ele>
        <time>2014-06-07T13:04:30Z</time>
      </trkpt>
      <trkpt lat="48.07504" lon="7.64189">
        <ele>342.85</ele>
        <time>2014-06-07T13:05:02Z</time>
      </trkpt>
      <trkpt lat="48.07506" lon="7.64187">
        <ele>343.33</ele>
        <time>2014-06-07T13:05:36Z</time>
      </trkpt>
      <trkpt lat="48.0751" lon="7.6419">
        <ele>343.81</ele>
        <time>2014-06-07T13:06:01Z</time>
      </trkpt>
      <trkpt lat="48.07508" lon="7.64196">
        <ele>343.81</ele>
        <time>2014-06-07T13:06:16Z</time>
      </trkpt>
      <trkpt lat="48.07517" lon="7.64195">
        <ele>342.37</ele>
        <time>2014-06-07T13:06:29Z</time>
      </trkpt>
      <trkpt lat="48.07528" lon="7.64192">
        <ele>340.92</ele>
        <time>2014-06-07T13:06:46Z</time>
      </trkpt>
      <trkpt lat="48.07538" lon="7.64191">
        <ele>337.56</ele>
        <time>2014-06-07T13:07:01Z</time>
      </trkpt>
      <trkpt lat="48.07554" lon="7.64194">
        <ele>334.68</ele>
        <time>2014-06-07T13:07:18Z</time>
      </trkpt>
      <trkpt lat="48.07565" lon="7.64192">
        <ele>331.79</ele>
        <time>2014-06-07T13:07:31Z</time>
      </trkpt>
      <trkpt lat="48.07576" lon="7.64184">
        <ele>328.43</ele>
        <time>2014-06-07T13:07:47Z</time>
      </trkpt>
      <trkpt lat="48.07587" lon="7.6418">
        <ele>325.54</ele>
        <time>2014-06-07T13:08:02Z</time>
      </trkpt>
      <trkpt lat="48.07602" lon="7.64173">
        <ele>322.18</ele>
        <time>2014-06-07T13:08:19Z</time>
      </trkpt>
      <trkpt lat="48.07611" lon="7.64165">
        <ele>319.78</ele>
        <time>2014-06-07T13:08:31Z</time>
      </trkpt>
      <trkpt lat="48.07618" lon="7.6416">
        <ele>318.33</ele>
        <time>2014-06-07T13:08:38Z</time>
      </trkpt>
      <trkpt lat="48.07636" lon="7.64148">
        <ele>314.49</ele>
        <time>2014-06-07T13:08:55Z</time>
      </trkpt>
      <trkpt lat="48.07655" lon="7.64135">
        <ele>312.09</ele>
        <time>2014-06-07T13:09:14Z</time>
      </trkpt>
      <trkpt lat="48.07667" lon="7.64119">
        <ele>309.2</ele>
        <time>2014-06-07T13:09:30Z</time>
      </trkpt>
      <trkpt lat="48.07675" lon="7.64092">
        <ele>306.8</ele>
        <time>2014-06-07T13:09:48Z</time>
      </trkpt>
      <trkpt lat="48.07682" lon="7.6407">
        <ele>304.88</ele>
        <time>2014-06-07T13:10:05Z</time>
      </trkpt>
      <trkpt lat="48.07699" lon="7.64049">
        <ele>301.99</ele>
        <time>2014-06-07T13:10:25Z</time>
      </trkpt>
      <trkpt lat="48.07702" lon="7.64046">
        <ele>301.51</ele>
        <time>2014-06-07T13:10:28Z</time>
      </trkpt>
      <trkpt lat="48.07719" lon="7.64032">
        <ele>298.63</ele>
        <time>2014-06-07T13:10:47Z</time>
      </trkpt>
      <trkpt lat="48.07737" lon="7.64019">
        <ele>296.7</ele>
        <time>2014-06-07T13:11:05Z</time>
      </trkpt>
      <trkpt lat="48.07753" lon="7.63999">
        <ele>294.3</ele>
        <time>2014-06-07T13:11:23Z</time>
      </trkpt>
      <trkpt lat="48.07764" lon="7.6398">
        <ele>291.42</ele>
        <time>2014-06-07T13:11:41Z</time>
      </trkpt>
      <trkpt lat="48.07775" lon="7.6397">
        <ele>289.97</ele>
        <time>2014-06-07T13:11:51Z</time>
      </trkpt>
      <trkpt lat="48.07785" lon="7.63945">
        <ele>289.97</ele>
        <time>2014-06-07T13:12:07Z</time>
      </trkpt>
      <trkpt lat="48.07788" lon="7.63928">
        <ele>292.86</ele>
        <time>2014-06-07T13:12:21Z</time>
      </trkpt>
      <trkpt lat="48.07792" lon="7.63905">
        <ele>292.86</ele>
        <time>2014-06-07T13:12:36Z</time>
      </trkpt>
      <trkpt lat="48.07797" lon="7.63883">
        <ele>293.34</ele>
        <time>2014-06-07T13:12:52Z</time>
      </trkpt>
      <trkpt lat="48.07807" lon="7.63872">
        <ele>293.82</ele>
        <time>2014-06-07T13:13:02Z</time>
      </trkpt>
      <trkpt lat="48.07823" lon="7.63857">
        <ele>294.3</ele>
        <time>2014-06-07T13:13:19Z</time>
      </trkpt>
      <trkpt lat="48.0784" lon="7.63845">
        <ele>293.34</ele>
        <time>2014-06-07T13:13:38Z</time>
      </trkpt>
      <trkpt lat="48.07854" lon="7.63827">
        <ele>292.38</ele>
        <time>2014-06-07T13:13:56Z</time>
      </trkpt>
      <trkpt lat="48.07864" lon="7.63802">
        <ele>291.9</ele>
        <time>2014-06-07T13:14:14Z</time>
      </trkpt>
      <trkpt lat="48.07871" lon="7.63784">
        <ele>292.38</ele>
        <time>2014-06-07T13:14:28Z</time>
      </trkpt>
      <trkpt lat="48.07879" lon="7.63762">
        <ele>293.34</ele>
        <time>2014-06-07T13:14:46Z</time>
      </trkpt>
      <trkpt lat="48.07886" lon="7.63749">
        <ele>293.34</ele>
        <time>2014-06-07T13:14:58Z</time>
      </trkpt>
      <trkpt lat="48.07905" lon="7.63737">
        <ele>293.34</ele>
        <time>2014-06-07T13:15:18Z</time>
      </trkpt>
      <trkpt lat="48.07907" lon="7.63735">
        <ele>291.9</ele>
        <time>2014-06-07T13:15:32Z</time>
      </trkpt>
      <trkpt lat="48.07905" lon="7.63734">
        <ele>292.38</ele>
        <time>2014-06-07T13:15:55Z</time>
      </trkpt>
      <trkpt lat="48.07911" lon="7.63745">
        <ele>292.38</ele>
        <time>2014-06-07T13:16:10Z</time>
      </trkpt>
      <trkpt lat="48.07916" lon="7.63752">
        <ele>292.38</ele>
        <time>2014-06-07T13:16:17Z</time>
      </trkpt>
      <trkpt lat="48.07924" lon="7.63767">
        <ele>292.38</ele>
        <time>2014-06-07T13:16:32Z</time>
      </trkpt>
      <trkpt lat="48.07931" lon="7.63787">
        <ele>291.42</ele>
        <time>2014-06-07T13:16:48Z</time>
      </trkpt>
      <trkpt lat="48.0793" lon="7.63783">
        <ele>291.9</ele>
        <time>2014-06-07T13:17:03Z</time>
      </trkpt>
      <trkpt lat="48.07923" lon="7.63763">
        <ele>291.9</ele>
        <time>2014-06-07T13:17:18Z</time>
      </trkpt>
      <trkpt lat="48.07914" lon="7.63739">
        <ele>291.9</ele>
        <time>2014-06-07T13:17:36Z</time>
      </trkpt>
      <trkpt lat="48.07914" lon="7.63737">
        <ele>291.42</ele>
        <time>2014-06-07T13:17:37Z</time>
      </trkpt>
      <trkpt lat="48.07918" lon="7.6372">
        <ele>290.94</ele>
        <time>2014-06-07T13:17:53Z</time>
      </trkpt>
      <trkpt lat="48.07921" lon="7.63719">
        <ele>290.94</ele>
        <time>2014-06-07T13:17:56Z</time>
      </trkpt>
      <trkpt lat="48.07942" lon="7.6371">
        <ele>289.01</ele>
        <time>2014-06-07T13:18:18Z</time>
      </trkpt>
      <trkpt lat="48.0796" lon="7.637">
        <ele>288.05</ele>
        <time>2014-06-07T13:18:37Z</time>
      </trkpt>
      <trkpt lat="48.07976" lon="7.63692">
        <ele>286.61</ele>
        <time>2014-06-07T13:18:54Z</time>
      </trkpt>
      <trkpt lat="48.07985" lon="7.63688">
        <ele>285.65</ele>
        <time>2014-06-07T13:19:04Z</time>
      </trkpt>
      <trkpt lat="48.07999" lon="7.63708">
        <ele>285.17</ele>
        <time>2014-06-07T13:19:23Z</time>
      </trkpt>
      <trkpt lat="48.07997" lon="7.63725">
        <ele>285.17</ele>
        <time>2014-06-07T13:19:38Z</time>
      </trkpt>
      <trkpt lat="48.07993" lon="7.63733">
        <ele>283.73</ele>
        <time>2014-06-07T13:19:46Z</time>
      </trkpt>
      <trkpt lat="48.08002" lon="7.63744">
        <ele>283.25</ele>
        <time>2014-06-07T13:19:58Z</time>
      </trkpt>
      <trkpt lat="48.07997" lon="7.63761">
        <ele>280.84</ele>
        <time>2014-06-07T13:20:15Z</time>
      </trkpt>
      <trkpt lat="48.07996" lon="7.63772">
        <ele>278.44</ele>
        <time>2014-06-07T13:20:31Z</time>
      </trkpt>
      <trkpt lat="48.08013" lon="7.63766">
        <ele>277.96</ele>
        <time>2014-06-07T13:20:49Z</time>
      </trkpt>
      <trkpt lat="48.08017" lon="7.63762">
        <ele>277.96</ele>
        <time>2014-06-07T13:21:14Z</time>
      </trkpt>
      <trkpt lat="48.0802" lon="7.63766">
        <ele>277.48</ele>
        <time>2014-06-07T13:21:37Z</time>
      </trkpt>
      <trkpt lat="48.0802" lon="7.63768">
        <ele>277.48</ele>
        <time>2014-06-07T13:22:01Z</time>
      </trkpt>
      <trkpt lat="48.08018" lon="7.63761">
        <ele>277.96</ele>
        <time>2014-06-07T13:22:22Z</time>
      </trkpt>
      <trkpt lat="48.08017" lon="7.63765">
        <ele>277.48</ele>
        <time>2014-06-07T13:22:41Z</time>
      </trkpt>
      <trkpt lat="48.08018" lon="7.63769">
        <ele>277.48</ele>
        <time>2014-06-07T13:23:08Z</time>
      </trkpt>
      <trkpt lat="48.08019" lon="7.63765">
        <ele>277</ele>
        <time>2014-06-07T13:23:35Z</time>
      </trkpt>
      <trkpt lat="48.08019" lon="7.63764">
        <ele>277</ele>
        <time>2014-06-07T13:24:00Z</time>
      </trkpt>
      <trkpt lat="48.08018" lon="7.63769">
        <ele>277.48</ele>
        <time>2014-06-07T13:24:23Z</time>
      </trkpt>
      <trkpt lat="48.08022" lon="7.63768">
        <ele>277</ele>
        <time>2014-06-07T13:24:38Z</time>
      </trkpt>
      <trkpt lat="48.08024" lon="7.63765">
        <ele>276.52</ele>
        <time>2014-06-07T13:25:07Z</time>
      </trkpt>
      <trkpt lat="48.08027" lon="7.6376">
        <ele>276.52</ele>
        <time>2014-06-07T13:25:33Z</time>
      </trkpt>
      <trkpt lat="48.08016" lon="7.6376">
        <ele>277</ele>
        <time>2014-06-07T13:25:56Z</time>
      </trkpt>
      <trkpt lat="48.08015" lon="7.63767">
        <ele>277</ele>
        <time>2014-06-07T13:26:19Z</time>
      </trkpt>
      <trkpt lat="48.08008" lon="7.63766">
        <ele>277.48</ele>
        <time>2014-06-07T13:26:33Z</time>
      </trkpt>
      <trkpt lat="48.07991" lon="7.63775">
        <ele>277</ele>
        <time>2014-06-07T13:26:50Z</time>
      </trkpt>
      <trkpt lat="48.07983" lon="7.63788">
        <ele>277</ele>
        <time>2014-06-07T13:27:02Z</time>
      </trkpt>
      <trkpt lat="48.07977" lon="7.63807">
        <ele>274.59</ele>
        <time>2014-06-07T13:27:19Z</time>
      </trkpt>
      <trkpt lat="48.07974" lon="7.63823">
        <ele>271.23</ele>
        <time>2014-06-07T13:27:34Z</time>
      </trkpt>
      <trkpt lat="48.07981" lon="7.63821">
        <ele>268.35</ele>
        <time>2014-06-07T13:27:48Z</time>
      </trkpt>
      <trkpt lat="48.07978" lon="7.63838">
        <ele>265.94</ele>
        <time>2014-06-07T13:28:04Z</time>
      </trkpt>
      <trkpt lat="48.07972" lon="7.63854">
        <ele>263.54</ele>
        <time>2014-06-07T13:28:19Z</time>
      </trkpt>
      <trkpt lat="48.07959" lon="7.6387">
        <ele>260.65</ele>
        <time>2014-06-07T13:28:36Z</time>
      </trkpt>
      <trkpt lat="48.07946" lon="7.63888">
        <ele>258.25</ele>
        <time>2014-06-07T13:28:53Z</time>
      </trkpt>
      <trkpt lat="48.07934" lon="7.63906">
        <ele>256.33</ele>
        <time>2014-06-07T13:29:09Z</time>
      </trkpt>
      <trkpt lat="48.07934" lon="7.6393">
        <ele>254.89</ele>
        <time>2014-06-07T13:29:22Z</time>
      </trkpt>
      <trkpt lat="48.07934" lon="7.63939">
        <ele>253.93</ele>
        <time>2014-06-07T13:29:28Z</time>
      </trkpt>
      <trkpt lat="48.07932" lon="7.6397">
        <ele>254.89</ele>
        <time>2014-06-07T13:29:47Z</time>
      </trkpt>
      <trkpt lat="48.07928" lon="7.63997">
        <ele>255.37</ele>
        <time>2014-06-07T13:30:04Z</time>
      </trkpt>
      <trkpt lat="48.07926" lon="7.64017">
        <ele>255.37</ele>
        <time>2014-06-07T13:30:17Z</time>
      </trkpt>
      <trkpt lat="48.07927" lon="7.64028">
        <ele>255.37</ele>
        <time>2014-06-07T13:30:25Z</time>
      </trkpt>
      <trkpt lat="48.07945" lon="7.6404">
        <ele>255.37</ele>
        <time>2014-06-07T13:30:44Z</time>
      </trkpt>
      <trkpt lat="48.07955" lon="7.6405">
        <ele>254.89</ele>
        <time>2014-06-07T13:30:59Z</time>
      </trkpt>
      <trkpt lat="48.07963" lon="7.64059">
        <ele>255.37</ele>
        <time>2014-06-07T13:31:08Z</time>
      </trkpt>
      <trkpt lat="48.07968" lon="7.64071">
        <ele>255.37</ele>
        <time>2014-06-07T13:31:16Z</time>
      </trkpt>
      <trkpt lat="48.07962" lon="7.64102">
        <ele>255.85</ele>
        <time>2014-06-07T13:31:36Z</time>
      </trkpt>
      <trkpt lat="48.07958" lon="7.64127">
        <ele>256.33</ele>
        <time>2014-06-07T13:31:52Z</time>
      </trkpt>
      <trkpt lat="48.07951" lon="7.64157">
        <ele>256.33</ele>
        <time>2014-06-07T13:32:13Z</time>
      </trkpt>
      <trkpt lat="48.07944" lon="7.64187">
        <ele>256.81</ele>
        <time>2014-06-07T13:32:32Z</time>
      </trkpt>
      <trkpt lat="48.07937" lon="7.64216">
        <ele>257.29</ele>
        <time>2014-06-07T13:32:50Z</time>
      </trkpt>
      <trkpt lat="48.0793" lon="7.64243">
        <ele>258.25</ele>
        <time>2014-06-07T13:33:08Z</time>
      </trkpt>
      <trkpt lat="48.07924" lon="7.64271">
        <ele>259.21</ele>
        <time>2014-06-07T13:33:27Z</time>
      </trkpt>
      <trkpt lat="48.07917" lon="7.64299">
        <ele>259.69</ele>
        <time>2014-06-07T13:33:45Z</time>
      </trkpt>
      <trkpt lat="48.07925" lon="7.6433">
        <ele>259.69</ele>
        <time>2014-06-07T13:34:04Z</time>
      </trkpt>
      <trkpt lat="48.07926" lon="7.64335">
        <ele>260.17</ele>
        <time>2014-06-07T13:34:19Z</time>
      </trkpt>
      <trkpt lat="48.07927" lon="7.64341">
        <ele>260.17</ele>
        <time>2014-06-07T13:34:44Z</time>
      </trkpt>
      <trkpt lat="48.07915" lon="7.64363">
        <ele>261.14</ele>
        <time>2014-06-07T13:35:04Z</time>
      </trkpt>
      <trkpt lat="48.07916" lon="7.64364">
        <ele>261.14</ele>
        <time>2014-06-07T13:35:23Z</time>
      </trkpt>
      <trkpt lat="48.07912" lon="7.64379">
        <ele>261.14</ele>
        <time>2014-06-07T13:35:44Z</time>
      </trkpt>
      <trkpt lat="48.07905" lon="7.64393">
        <ele>260.65</ele>
        <time>2014-06-07T13:36:00Z</time>
      </trkpt>
      <trkpt lat="48.07903" lon="7.64401">
        <ele>261.62</ele>
        <time>2014-06-07T13:36:20Z</time>
      </trkpt>
      <trkpt lat="48.07904" lon="7.64409">
        <ele>261.14</ele>
        <time>2014-06-07T13:36:27Z</time>
      </trkpt>
      <trkpt lat="48.079" lon="7.64428">
        <ele>261.62</ele>
        <time>2014-06-07T13:36:42Z</time>
      </trkpt>
      <trkpt lat="48.07895" lon="7.64449">
        <ele>262.1</ele>
        <time>2014-06-07T13:37:00Z</time>
      </trkpt>
      <trkpt lat="48.07891" lon="7.64469">
        <ele>263.54</ele>
        <time>2014-06-07T13:37:16Z</time>
      </trkpt>
      <trkpt lat="48.07888" lon="7.64482">
        <ele>264.02</ele>
        <time>2014-06-07T13:37:31Z</time>
      </trkpt>
      <trkpt lat="48.07884" lon="7.64481">
        <ele>264.5</ele>
        <time>2014-06-07T13:37:48Z</time>
      </trkpt>
      <trkpt lat="48.07885" lon="7.64485">
        <ele>264.5</ele>
        <time>2014-06-07T13:38:06Z</time>
      </trkpt>
      <trkpt lat="48.07882" lon="7.64502">
        <ele>264.5</ele>
        <time>2014-06-07T13:38:20Z</time>
      </trkpt>
      <trkpt lat="48.0788" lon="7.64502">
        <ele>264.5</ele>
        <time>2014-06-07T13:38:36Z</time>
      </trkpt>
    </trkseg>
  </trk>
</gpx>